<?xml version="1.0" encoding="UTF-8" standalone="no" ?>
<gpx xmlns="http://www.topografix.com/GPX/1/1" xmlns:xsi="http://www.w3.org/2001/XMLSchema-instance" xsi:schemaLocation="http://www.topografix.com/GPX/1/1 http://www.topografix.com/GPX/1/1/gpx.xsd" version="1.1" creator="VisuGPX - https://www.visugpx.com">
  <metadata>
    <name>j09 Queyras, Brunissard =&amp;gt; Brunissard</name>
    <desc><![CDATA[Boucle au départ de Brunissard, montée au col de Cros, descente sur les chalets de Clapeyto, montagne de l'Agnelil, cols de Pansier, de Néal et du Lauzon agrémentés de nombreux lacs, descente difficile au lac du Lauzon, cabane de Lagardère et retour à Brunissard en suivant l'ancien canal d'irrigation.]]></desc>
  </metadata>
  <trk>
    <name><![CDATA[j09 Queyras, Brunissard =&gt; Brunissard_1]]></name>
    <extensions>
      <line xmlns="http://www.topografix.com/GPX/gpx_style/0/2">
        <color>0000FF</color>
        <width>4</width>
      </line>
    </extensions>
    <trkseg>
      <trkpt lat="44.79268" lon="6.72779">
        <ele>1735.9</ele>
        <time>2021-07-12T06:08:27Z</time>
      </trkpt>
      <trkpt lat="44.79286" lon="6.72739">
        <ele>1738</ele>
        <time>2021-07-12T06:08:57Z</time>
      </trkpt>
      <trkpt lat="44.79296" lon="6.72702">
        <ele>1741.5</ele>
        <time>2021-07-12T06:09:27Z</time>
      </trkpt>
      <trkpt lat="44.79296" lon="6.72665">
        <ele>1755.3</ele>
        <time>2021-07-12T06:09:58Z</time>
      </trkpt>
      <trkpt lat="44.79313" lon="6.72631">
        <ele>1772.6</ele>
        <time>2021-07-12T06:10:29Z</time>
      </trkpt>
      <trkpt lat="44.79335" lon="6.72612">
        <ele>1781.8</ele>
        <time>2021-07-12T06:10:59Z</time>
      </trkpt>
      <trkpt lat="44.79355" lon="6.72575">
        <ele>1786.9</ele>
        <time>2021-07-12T06:11:29Z</time>
      </trkpt>
      <trkpt lat="44.79373" lon="6.7253">
        <ele>1796.8</ele>
        <time>2021-07-12T06:12:00Z</time>
      </trkpt>
      <trkpt lat="44.79386" lon="6.72498">
        <ele>1799.4</ele>
        <time>2021-07-12T06:12:30Z</time>
      </trkpt>
      <trkpt lat="44.7941" lon="6.7245">
        <ele>1802.8</ele>
        <time>2021-07-12T06:13:01Z</time>
      </trkpt>
      <trkpt lat="44.7942" lon="6.72404">
        <ele>1796.5</ele>
        <time>2021-07-12T06:13:31Z</time>
      </trkpt>
      <trkpt lat="44.79434" lon="6.72371">
        <ele>1784.2</ele>
        <time>2021-07-12T06:14:01Z</time>
      </trkpt>
      <trkpt lat="44.7945" lon="6.7235">
        <ele>1781.2</ele>
        <time>2021-07-12T06:14:32Z</time>
      </trkpt>
      <trkpt lat="44.7947" lon="6.72311">
        <ele>1780.5</ele>
        <time>2021-07-12T06:15:02Z</time>
      </trkpt>
      <trkpt lat="44.79493" lon="6.7228">
        <ele>1778</ele>
        <time>2021-07-12T06:15:32Z</time>
      </trkpt>
      <trkpt lat="44.79522" lon="6.72265">
        <ele>1770.5</ele>
        <time>2021-07-12T06:16:02Z</time>
      </trkpt>
      <trkpt lat="44.79557" lon="6.72257">
        <ele>1775.1</ele>
        <time>2021-07-12T06:16:33Z</time>
      </trkpt>
      <trkpt lat="44.7958" lon="6.72244">
        <ele>1773.2</ele>
        <time>2021-07-12T06:17:03Z</time>
      </trkpt>
      <trkpt lat="44.79605" lon="6.72216">
        <ele>1768.6</ele>
        <time>2021-07-12T06:17:33Z</time>
      </trkpt>
      <trkpt lat="44.79628" lon="6.72179">
        <ele>1769.4</ele>
        <time>2021-07-12T06:18:04Z</time>
      </trkpt>
      <trkpt lat="44.79647" lon="6.7215">
        <ele>1767.9</ele>
        <time>2021-07-12T06:18:36Z</time>
      </trkpt>
      <trkpt lat="44.7966" lon="6.72132">
        <ele>1767.6</ele>
        <time>2021-07-12T06:19:06Z</time>
      </trkpt>
      <trkpt lat="44.79691" lon="6.72114">
        <ele>1767.6</ele>
        <time>2021-07-12T06:19:37Z</time>
      </trkpt>
      <trkpt lat="44.7971" lon="6.7208">
        <ele>1766.3</ele>
        <time>2021-07-12T06:20:07Z</time>
      </trkpt>
      <trkpt lat="44.7972" lon="6.72056">
        <ele>1770</ele>
        <time>2021-07-12T06:20:38Z</time>
      </trkpt>
      <trkpt lat="44.79733" lon="6.7202">
        <ele>1766.1</ele>
        <time>2021-07-12T06:21:08Z</time>
      </trkpt>
      <trkpt lat="44.79755" lon="6.71988">
        <ele>1764.7</ele>
        <time>2021-07-12T06:21:38Z</time>
      </trkpt>
      <trkpt lat="44.79774" lon="6.71982">
        <ele>1763.9</ele>
        <time>2021-07-12T06:22:09Z</time>
      </trkpt>
      <trkpt lat="44.79792" lon="6.71982">
        <ele>1763.7</ele>
        <time>2021-07-12T06:22:40Z</time>
      </trkpt>
      <trkpt lat="44.79798" lon="6.71952">
        <ele>1768.3</ele>
        <time>2021-07-12T06:23:10Z</time>
      </trkpt>
      <trkpt lat="44.79803" lon="6.71922">
        <ele>1771.4</ele>
        <time>2021-07-12T06:23:41Z</time>
      </trkpt>
      <trkpt lat="44.79808" lon="6.71882">
        <ele>1779.6</ele>
        <time>2021-07-12T06:24:11Z</time>
      </trkpt>
      <trkpt lat="44.79817" lon="6.71861">
        <ele>1777.7</ele>
        <time>2021-07-12T06:24:41Z</time>
      </trkpt>
      <trkpt lat="44.79806" lon="6.71821">
        <ele>1781.8</ele>
        <time>2021-07-12T06:25:12Z</time>
      </trkpt>
      <trkpt lat="44.79791" lon="6.71785">
        <ele>1782.6</ele>
        <time>2021-07-12T06:25:42Z</time>
      </trkpt>
      <trkpt lat="44.79785" lon="6.71753">
        <ele>1785.1</ele>
        <time>2021-07-12T06:26:13Z</time>
      </trkpt>
      <trkpt lat="44.79774" lon="6.71754">
        <ele>1788.4</ele>
        <time>2021-07-12T06:26:44Z</time>
      </trkpt>
      <trkpt lat="44.79753" lon="6.71738">
        <ele>1794.1</ele>
        <time>2021-07-12T06:27:14Z</time>
      </trkpt>
      <trkpt lat="44.79734" lon="6.71734">
        <ele>1795.5</ele>
        <time>2021-07-12T06:27:45Z</time>
      </trkpt>
      <trkpt lat="44.7972" lon="6.71711">
        <ele>1794.1</ele>
        <time>2021-07-12T06:28:16Z</time>
      </trkpt>
      <trkpt lat="44.79711" lon="6.71703">
        <ele>1798.2</ele>
        <time>2021-07-12T06:28:47Z</time>
      </trkpt>
      <trkpt lat="44.79702" lon="6.71687">
        <ele>1806.4</ele>
        <time>2021-07-12T06:29:17Z</time>
      </trkpt>
      <trkpt lat="44.79695" lon="6.71667">
        <ele>1807.3</ele>
        <time>2021-07-12T06:29:48Z</time>
      </trkpt>
      <trkpt lat="44.79687" lon="6.7166">
        <ele>1812.7</ele>
        <time>2021-07-12T06:30:20Z</time>
      </trkpt>
      <trkpt lat="44.79677" lon="6.7166">
        <ele>1818.6</ele>
        <time>2021-07-12T06:30:50Z</time>
      </trkpt>
      <trkpt lat="44.7967" lon="6.71638">
        <ele>1821.2</ele>
        <time>2021-07-12T06:31:20Z</time>
      </trkpt>
      <trkpt lat="44.79662" lon="6.71615">
        <ele>1823.9</ele>
        <time>2021-07-12T06:31:51Z</time>
      </trkpt>
      <trkpt lat="44.79654" lon="6.71609">
        <ele>1828.6</ele>
        <time>2021-07-12T06:32:24Z</time>
      </trkpt>
      <trkpt lat="44.79642" lon="6.71586">
        <ele>1838.2</ele>
        <time>2021-07-12T06:32:54Z</time>
      </trkpt>
      <trkpt lat="44.79637" lon="6.71573">
        <ele>1844.1</ele>
        <time>2021-07-12T06:33:25Z</time>
      </trkpt>
      <trkpt lat="44.79627" lon="6.71569">
        <ele>1847.5</ele>
        <time>2021-07-12T06:33:55Z</time>
      </trkpt>
      <trkpt lat="44.79613" lon="6.7156">
        <ele>1850.3</ele>
        <time>2021-07-12T06:34:26Z</time>
      </trkpt>
      <trkpt lat="44.79621" lon="6.71551">
        <ele>1853.1</ele>
        <time>2021-07-12T06:34:57Z</time>
      </trkpt>
      <trkpt lat="44.79626" lon="6.71525">
        <ele>1858.4</ele>
        <time>2021-07-12T06:35:28Z</time>
      </trkpt>
      <trkpt lat="44.79623" lon="6.71502">
        <ele>1862.2</ele>
        <time>2021-07-12T06:35:58Z</time>
      </trkpt>
      <trkpt lat="44.7961" lon="6.71518">
        <ele>1865.1</ele>
        <time>2021-07-12T06:36:30Z</time>
      </trkpt>
      <trkpt lat="44.79606" lon="6.71503">
        <ele>1865</ele>
        <time>2021-07-12T06:37:00Z</time>
      </trkpt>
      <trkpt lat="44.79589" lon="6.71521">
        <ele>1871</ele>
        <time>2021-07-12T06:37:31Z</time>
      </trkpt>
      <trkpt lat="44.79577" lon="6.71544">
        <ele>1875.5</ele>
        <time>2021-07-12T06:38:02Z</time>
      </trkpt>
      <trkpt lat="44.79562" lon="6.71566">
        <ele>1874.7</ele>
        <time>2021-07-12T06:38:34Z</time>
      </trkpt>
      <trkpt lat="44.79539" lon="6.71587">
        <ele>1878.4</ele>
        <time>2021-07-12T06:39:04Z</time>
      </trkpt>
      <trkpt lat="44.79522" lon="6.71604">
        <ele>1883.6</ele>
        <time>2021-07-12T06:39:35Z</time>
      </trkpt>
      <trkpt lat="44.79509" lon="6.71618">
        <ele>1881.4</ele>
        <time>2021-07-12T06:40:06Z</time>
      </trkpt>
      <trkpt lat="44.79486" lon="6.71633">
        <ele>1885</ele>
        <time>2021-07-12T06:40:36Z</time>
      </trkpt>
      <trkpt lat="44.79457" lon="6.71637">
        <ele>1885.5</ele>
        <time>2021-07-12T06:41:07Z</time>
      </trkpt>
      <trkpt lat="44.79437" lon="6.71647">
        <ele>1886.7</ele>
        <time>2021-07-12T06:41:38Z</time>
      </trkpt>
      <trkpt lat="44.79445" lon="6.71629">
        <ele>1890.8</ele>
        <time>2021-07-12T06:42:10Z</time>
      </trkpt>
      <trkpt lat="44.79463" lon="6.71615">
        <ele>1890.7</ele>
        <time>2021-07-12T06:42:40Z</time>
      </trkpt>
      <trkpt lat="44.79444" lon="6.71612">
        <ele>1892.8</ele>
        <time>2021-07-12T06:43:12Z</time>
      </trkpt>
      <trkpt lat="44.79431" lon="6.71612">
        <ele>1895.4</ele>
        <time>2021-07-12T06:43:42Z</time>
      </trkpt>
      <trkpt lat="44.79441" lon="6.71604">
        <ele>1897.8</ele>
        <time>2021-07-12T06:44:13Z</time>
      </trkpt>
      <trkpt lat="44.79426" lon="6.71597">
        <ele>1906.6</ele>
        <time>2021-07-12T06:44:44Z</time>
      </trkpt>
      <trkpt lat="44.7944" lon="6.7158">
        <ele>1910.3</ele>
        <time>2021-07-12T06:45:15Z</time>
      </trkpt>
      <trkpt lat="44.79427" lon="6.71583">
        <ele>1913.6</ele>
        <time>2021-07-12T06:45:45Z</time>
      </trkpt>
      <trkpt lat="44.79409" lon="6.7158">
        <ele>1918</ele>
        <time>2021-07-12T06:46:16Z</time>
      </trkpt>
      <trkpt lat="44.79414" lon="6.71569">
        <ele>1922.9</ele>
        <time>2021-07-12T06:47:01Z</time>
      </trkpt>
      <trkpt lat="44.79426" lon="6.71556">
        <ele>1924.7</ele>
        <time>2021-07-12T06:47:32Z</time>
      </trkpt>
      <trkpt lat="44.79439" lon="6.71542">
        <ele>1929.3</ele>
        <time>2021-07-12T06:48:02Z</time>
      </trkpt>
      <trkpt lat="44.79424" lon="6.71537">
        <ele>1936.9</ele>
        <time>2021-07-12T06:48:32Z</time>
      </trkpt>
      <trkpt lat="44.79409" lon="6.71537">
        <ele>1942.8</ele>
        <time>2021-07-12T06:49:04Z</time>
      </trkpt>
      <trkpt lat="44.79388" lon="6.71547">
        <ele>1948.2</ele>
        <time>2021-07-12T06:49:34Z</time>
      </trkpt>
      <trkpt lat="44.79371" lon="6.71546">
        <ele>1950.7</ele>
        <time>2021-07-12T06:50:04Z</time>
      </trkpt>
      <trkpt lat="44.79362" lon="6.71543">
        <ele>1957.3</ele>
        <time>2021-07-12T06:50:35Z</time>
      </trkpt>
      <trkpt lat="44.79355" lon="6.71535">
        <ele>1963.7</ele>
        <time>2021-07-12T06:51:28Z</time>
      </trkpt>
      <trkpt lat="44.79339" lon="6.71535">
        <ele>1970.9</ele>
        <time>2021-07-12T06:52:00Z</time>
      </trkpt>
      <trkpt lat="44.79344" lon="6.71524">
        <ele>1975.6</ele>
        <time>2021-07-12T06:52:30Z</time>
      </trkpt>
      <trkpt lat="44.7935" lon="6.71515">
        <ele>1976.9</ele>
        <time>2021-07-12T06:53:00Z</time>
      </trkpt>
      <trkpt lat="44.79342" lon="6.71511">
        <ele>1985.7</ele>
        <time>2021-07-12T06:53:40Z</time>
      </trkpt>
      <trkpt lat="44.79345" lon="6.71499">
        <ele>1987.9</ele>
        <time>2021-07-12T06:54:12Z</time>
      </trkpt>
      <trkpt lat="44.79321" lon="6.71495">
        <ele>1990.4</ele>
        <time>2021-07-12T06:54:42Z</time>
      </trkpt>
      <trkpt lat="44.79304" lon="6.71494">
        <ele>1993.7</ele>
        <time>2021-07-12T06:55:12Z</time>
      </trkpt>
      <trkpt lat="44.79295" lon="6.71491">
        <ele>1997</ele>
        <time>2021-07-12T06:55:43Z</time>
      </trkpt>
      <trkpt lat="44.79296" lon="6.71478">
        <ele>2004.5</ele>
        <time>2021-07-12T06:56:28Z</time>
      </trkpt>
      <trkpt lat="44.79291" lon="6.71467">
        <ele>2006.8</ele>
        <time>2021-07-12T06:56:58Z</time>
      </trkpt>
      <trkpt lat="44.79274" lon="6.71462">
        <ele>2013.2</ele>
        <time>2021-07-12T06:57:28Z</time>
      </trkpt>
      <trkpt lat="44.79283" lon="6.71459">
        <ele>2013</ele>
        <time>2021-07-12T06:58:01Z</time>
      </trkpt>
      <trkpt lat="44.79272" lon="6.71453">
        <ele>2017.9</ele>
        <time>2021-07-12T06:58:31Z</time>
      </trkpt>
      <trkpt lat="44.79259" lon="6.71447">
        <ele>2024.4</ele>
        <time>2021-07-12T06:59:02Z</time>
      </trkpt>
      <trkpt lat="44.79249" lon="6.71445">
        <ele>2027.9</ele>
        <time>2021-07-12T06:59:38Z</time>
      </trkpt>
      <trkpt lat="44.79257" lon="6.71452">
        <ele>2039.8</ele>
        <time>2021-07-12T07:02:38Z</time>
      </trkpt>
      <trkpt lat="44.79252" lon="6.71441">
        <ele>2034.9</ele>
        <time>2021-07-12T07:04:32Z</time>
      </trkpt>
      <trkpt lat="44.79242" lon="6.71443">
        <ele>2040.4</ele>
        <time>2021-07-12T07:06:42Z</time>
      </trkpt>
      <trkpt lat="44.79236" lon="6.71433">
        <ele>2041.6</ele>
        <time>2021-07-12T07:07:12Z</time>
      </trkpt>
      <trkpt lat="44.79241" lon="6.71422">
        <ele>2043.4</ele>
        <time>2021-07-12T07:07:46Z</time>
      </trkpt>
      <trkpt lat="44.79241" lon="6.71408">
        <ele>2044.9</ele>
        <time>2021-07-12T07:08:25Z</time>
      </trkpt>
      <trkpt lat="44.79244" lon="6.71397">
        <ele>2051.4</ele>
        <time>2021-07-12T07:08:59Z</time>
      </trkpt>
      <trkpt lat="44.79243" lon="6.71384">
        <ele>2055.1</ele>
        <time>2021-07-12T07:09:33Z</time>
      </trkpt>
      <trkpt lat="44.79231" lon="6.71373">
        <ele>2058.5</ele>
        <time>2021-07-12T07:10:04Z</time>
      </trkpt>
      <trkpt lat="44.79221" lon="6.71372">
        <ele>2063.3</ele>
        <time>2021-07-12T07:10:35Z</time>
      </trkpt>
      <trkpt lat="44.79228" lon="6.71357">
        <ele>2061.7</ele>
        <time>2021-07-12T07:11:06Z</time>
      </trkpt>
      <trkpt lat="44.79243" lon="6.71349">
        <ele>2070.4</ele>
        <time>2021-07-12T07:11:36Z</time>
      </trkpt>
      <trkpt lat="44.79252" lon="6.71335">
        <ele>2074.3</ele>
        <time>2021-07-12T07:12:07Z</time>
      </trkpt>
      <trkpt lat="44.79262" lon="6.7132">
        <ele>2081</ele>
        <time>2021-07-12T07:12:37Z</time>
      </trkpt>
      <trkpt lat="44.79269" lon="6.71303">
        <ele>2084.9</ele>
        <time>2021-07-12T07:13:09Z</time>
      </trkpt>
      <trkpt lat="44.79277" lon="6.71284">
        <ele>2093.3</ele>
        <time>2021-07-12T07:13:39Z</time>
      </trkpt>
      <trkpt lat="44.79282" lon="6.71268">
        <ele>2099</ele>
        <time>2021-07-12T07:14:10Z</time>
      </trkpt>
      <trkpt lat="44.79289" lon="6.71255">
        <ele>2100.6</ele>
        <time>2021-07-12T07:14:40Z</time>
      </trkpt>
      <trkpt lat="44.79291" lon="6.7124">
        <ele>2109</ele>
        <time>2021-07-12T07:15:10Z</time>
      </trkpt>
      <trkpt lat="44.79284" lon="6.7121">
        <ele>2108.4</ele>
        <time>2021-07-12T07:15:40Z</time>
      </trkpt>
      <trkpt lat="44.79281" lon="6.71186">
        <ele>2111</ele>
        <time>2021-07-12T07:16:12Z</time>
      </trkpt>
      <trkpt lat="44.7927" lon="6.7115">
        <ele>2114.6</ele>
        <time>2021-07-12T07:16:42Z</time>
      </trkpt>
      <trkpt lat="44.79269" lon="6.71105">
        <ele>2111.1</ele>
        <time>2021-07-12T07:17:12Z</time>
      </trkpt>
      <trkpt lat="44.79266" lon="6.71064">
        <ele>2116.8</ele>
        <time>2021-07-12T07:17:42Z</time>
      </trkpt>
      <trkpt lat="44.79269" lon="6.71031">
        <ele>2119.7</ele>
        <time>2021-07-12T07:18:13Z</time>
      </trkpt>
      <trkpt lat="44.79273" lon="6.70999">
        <ele>2120.3</ele>
        <time>2021-07-12T07:18:44Z</time>
      </trkpt>
      <trkpt lat="44.79272" lon="6.70966">
        <ele>2126.6</ele>
        <time>2021-07-12T07:19:15Z</time>
      </trkpt>
      <trkpt lat="44.79277" lon="6.70955">
        <ele>2129.5</ele>
        <time>2021-07-12T07:19:45Z</time>
      </trkpt>
      <trkpt lat="44.79285" lon="6.70948">
        <ele>2138.1</ele>
        <time>2021-07-12T07:20:16Z</time>
      </trkpt>
      <trkpt lat="44.79288" lon="6.70918">
        <ele>2137.5</ele>
        <time>2021-07-12T07:20:47Z</time>
      </trkpt>
      <trkpt lat="44.79285" lon="6.70898">
        <ele>2135.9</ele>
        <time>2021-07-12T07:21:18Z</time>
      </trkpt>
      <trkpt lat="44.7929" lon="6.70887">
        <ele>2140.4</ele>
        <time>2021-07-12T07:22:04Z</time>
      </trkpt>
      <trkpt lat="44.79302" lon="6.70856">
        <ele>2135.9</ele>
        <time>2021-07-12T07:22:36Z</time>
      </trkpt>
      <trkpt lat="44.793" lon="6.70831">
        <ele>2139.1</ele>
        <time>2021-07-12T07:23:06Z</time>
      </trkpt>
      <trkpt lat="44.79302" lon="6.70811">
        <ele>2141.9</ele>
        <time>2021-07-12T07:23:36Z</time>
      </trkpt>
      <trkpt lat="44.79306" lon="6.70793">
        <ele>2146.6</ele>
        <time>2021-07-12T07:24:07Z</time>
      </trkpt>
      <trkpt lat="44.7931" lon="6.70781">
        <ele>2154.9</ele>
        <time>2021-07-12T07:24:48Z</time>
      </trkpt>
      <trkpt lat="44.79306" lon="6.70764">
        <ele>2156.7</ele>
        <time>2021-07-12T07:25:18Z</time>
      </trkpt>
      <trkpt lat="44.79334" lon="6.7078">
        <ele>2160.3</ele>
        <time>2021-07-12T07:25:49Z</time>
      </trkpt>
      <trkpt lat="44.79331" lon="6.70761">
        <ele>2165.8</ele>
        <time>2021-07-12T07:26:20Z</time>
      </trkpt>
      <trkpt lat="44.79356" lon="6.70778">
        <ele>2172.7</ele>
        <time>2021-07-12T07:26:51Z</time>
      </trkpt>
      <trkpt lat="44.79365" lon="6.70776">
        <ele>2171</ele>
        <time>2021-07-12T07:27:24Z</time>
      </trkpt>
      <trkpt lat="44.79373" lon="6.70763">
        <ele>2172.7</ele>
        <time>2021-07-12T07:27:54Z</time>
      </trkpt>
      <trkpt lat="44.79387" lon="6.70767">
        <ele>2175.9</ele>
        <time>2021-07-12T07:28:24Z</time>
      </trkpt>
      <trkpt lat="44.79394" lon="6.70784">
        <ele>2177.2</ele>
        <time>2021-07-12T07:28:56Z</time>
      </trkpt>
      <trkpt lat="44.794" lon="6.70767">
        <ele>2179.1</ele>
        <time>2021-07-12T07:29:26Z</time>
      </trkpt>
      <trkpt lat="44.79408" lon="6.70759">
        <ele>2185.2</ele>
        <time>2021-07-12T07:30:00Z</time>
      </trkpt>
      <trkpt lat="44.79408" lon="6.7073">
        <ele>2190</ele>
        <time>2021-07-12T07:30:31Z</time>
      </trkpt>
      <trkpt lat="44.79412" lon="6.70707">
        <ele>2190</ele>
        <time>2021-07-12T07:31:01Z</time>
      </trkpt>
      <trkpt lat="44.79422" lon="6.70704">
        <ele>2197.6</ele>
        <time>2021-07-12T07:31:32Z</time>
      </trkpt>
      <trkpt lat="44.79438" lon="6.70724">
        <ele>2206.9</ele>
        <time>2021-07-12T07:32:03Z</time>
      </trkpt>
      <trkpt lat="44.79445" lon="6.70746">
        <ele>2221.2</ele>
        <time>2021-07-12T07:32:33Z</time>
      </trkpt>
      <trkpt lat="44.7945" lon="6.70722">
        <ele>2224.8</ele>
        <time>2021-07-12T07:33:04Z</time>
      </trkpt>
      <trkpt lat="44.79448" lon="6.70697">
        <ele>2224.9</ele>
        <time>2021-07-12T07:33:36Z</time>
      </trkpt>
      <trkpt lat="44.7946" lon="6.70704">
        <ele>2230.4</ele>
        <time>2021-07-12T07:34:06Z</time>
      </trkpt>
      <trkpt lat="44.79468" lon="6.70723">
        <ele>2232.1</ele>
        <time>2021-07-12T07:34:36Z</time>
      </trkpt>
      <trkpt lat="44.79469" lon="6.70708">
        <ele>2235.1</ele>
        <time>2021-07-12T07:35:06Z</time>
      </trkpt>
      <trkpt lat="44.79468" lon="6.70689">
        <ele>2239.6</ele>
        <time>2021-07-12T07:35:37Z</time>
      </trkpt>
      <trkpt lat="44.79465" lon="6.70668">
        <ele>2236.7</ele>
        <time>2021-07-12T07:36:08Z</time>
      </trkpt>
      <trkpt lat="44.79483" lon="6.70681">
        <ele>2247.9</ele>
        <time>2021-07-12T07:36:39Z</time>
      </trkpt>
      <trkpt lat="44.79498" lon="6.70688">
        <ele>2253.3</ele>
        <time>2021-07-12T07:37:09Z</time>
      </trkpt>
      <trkpt lat="44.79504" lon="6.70697">
        <ele>2257.2</ele>
        <time>2021-07-12T07:38:42Z</time>
      </trkpt>
      <trkpt lat="44.79509" lon="6.70707">
        <ele>2258.5</ele>
        <time>2021-07-12T07:39:45Z</time>
      </trkpt>
      <trkpt lat="44.79517" lon="6.70741">
        <ele>2265.8</ele>
        <time>2021-07-12T07:40:16Z</time>
      </trkpt>
      <trkpt lat="44.79524" lon="6.70763">
        <ele>2266.5</ele>
        <time>2021-07-12T07:40:46Z</time>
      </trkpt>
      <trkpt lat="44.79524" lon="6.70776">
        <ele>2266.7</ele>
        <time>2021-07-12T07:42:30Z</time>
      </trkpt>
      <trkpt lat="44.7953" lon="6.70815">
        <ele>2270.3</ele>
        <time>2021-07-12T07:43:00Z</time>
      </trkpt>
      <trkpt lat="44.79528" lon="6.70831">
        <ele>2278.5</ele>
        <time>2021-07-12T07:43:32Z</time>
      </trkpt>
      <trkpt lat="44.79527" lon="6.70817">
        <ele>2273.5</ele>
        <time>2021-07-12T07:44:44Z</time>
      </trkpt>
      <trkpt lat="44.79524" lon="6.70785">
        <ele>2269.4</ele>
        <time>2021-07-12T07:45:14Z</time>
      </trkpt>
      <trkpt lat="44.79519" lon="6.70755">
        <ele>2267.9</ele>
        <time>2021-07-12T07:45:45Z</time>
      </trkpt>
      <trkpt lat="44.79516" lon="6.70736">
        <ele>2263.2</ele>
        <time>2021-07-12T07:46:16Z</time>
      </trkpt>
      <trkpt lat="44.79512" lon="6.70718">
        <ele>2261.8</ele>
        <time>2021-07-12T07:46:46Z</time>
      </trkpt>
      <trkpt lat="44.79509" lon="6.70705">
        <ele>2260.1</ele>
        <time>2021-07-12T07:48:12Z</time>
      </trkpt>
      <trkpt lat="44.79505" lon="6.70698">
        <ele>2260.2</ele>
        <time>2021-07-12T07:49:20Z</time>
      </trkpt>
      <trkpt lat="44.79502" lon="6.70683">
        <ele>2254.9</ele>
        <time>2021-07-12T07:49:51Z</time>
      </trkpt>
      <trkpt lat="44.79501" lon="6.7068">
        <ele>2256.3</ele>
        <time>2021-07-12T07:50:22Z</time>
      </trkpt>
      <trkpt lat="44.79516" lon="6.7067">
        <ele>2260</ele>
        <time>2021-07-12T07:50:53Z</time>
      </trkpt>
      <trkpt lat="44.79539" lon="6.70637">
        <ele>2256.6</ele>
        <time>2021-07-12T07:51:24Z</time>
      </trkpt>
      <trkpt lat="44.79553" lon="6.70602">
        <ele>2250.8</ele>
        <time>2021-07-12T07:51:54Z</time>
      </trkpt>
      <trkpt lat="44.79566" lon="6.70587">
        <ele>2248.4</ele>
        <time>2021-07-12T07:52:24Z</time>
      </trkpt>
      <trkpt lat="44.79574" lon="6.70571">
        <ele>2246.5</ele>
        <time>2021-07-12T07:52:54Z</time>
      </trkpt>
      <trkpt lat="44.79593" lon="6.70531">
        <ele>2243.7</ele>
        <time>2021-07-12T07:53:24Z</time>
      </trkpt>
      <trkpt lat="44.79614" lon="6.70504">
        <ele>2243.4</ele>
        <time>2021-07-12T07:53:55Z</time>
      </trkpt>
      <trkpt lat="44.79638" lon="6.70479">
        <ele>2243.2</ele>
        <time>2021-07-12T07:54:25Z</time>
      </trkpt>
      <trkpt lat="44.79654" lon="6.70442">
        <ele>2240.5</ele>
        <time>2021-07-12T07:54:56Z</time>
      </trkpt>
      <trkpt lat="44.79663" lon="6.70419">
        <ele>2236.6</ele>
        <time>2021-07-12T07:55:27Z</time>
      </trkpt>
      <trkpt lat="44.79668" lon="6.70384">
        <ele>2233.6</ele>
        <time>2021-07-12T07:55:57Z</time>
      </trkpt>
      <trkpt lat="44.79659" lon="6.70347">
        <ele>2227.9</ele>
        <time>2021-07-12T07:56:28Z</time>
      </trkpt>
      <trkpt lat="44.79648" lon="6.70312">
        <ele>2218.7</ele>
        <time>2021-07-12T07:56:58Z</time>
      </trkpt>
      <trkpt lat="44.79635" lon="6.7028">
        <ele>2210.4</ele>
        <time>2021-07-12T07:57:30Z</time>
      </trkpt>
      <trkpt lat="44.79637" lon="6.70272">
        <ele>2208.5</ele>
        <time>2021-07-12T07:58:00Z</time>
      </trkpt>
      <trkpt lat="44.79625" lon="6.70231">
        <ele>2204.4</ele>
        <time>2021-07-12T07:58:30Z</time>
      </trkpt>
      <trkpt lat="44.79623" lon="6.70206">
        <ele>2201.1</ele>
        <time>2021-07-12T07:59:01Z</time>
      </trkpt>
      <trkpt lat="44.79623" lon="6.70207">
        <ele>2200.9</ele>
        <time>2021-07-12T07:59:33Z</time>
      </trkpt>
      <trkpt lat="44.79622" lon="6.70179">
        <ele>2198.5</ele>
        <time>2021-07-12T08:00:03Z</time>
      </trkpt>
      <trkpt lat="44.79618" lon="6.70144">
        <ele>2194.7</ele>
        <time>2021-07-12T08:00:33Z</time>
      </trkpt>
      <trkpt lat="44.79618" lon="6.70105">
        <ele>2191.9</ele>
        <time>2021-07-12T08:01:04Z</time>
      </trkpt>
      <trkpt lat="44.79612" lon="6.70068">
        <ele>2188.3</ele>
        <time>2021-07-12T08:01:36Z</time>
      </trkpt>
      <trkpt lat="44.79604" lon="6.70029">
        <ele>2185.6</ele>
        <time>2021-07-12T08:02:06Z</time>
      </trkpt>
      <trkpt lat="44.79602" lon="6.69992">
        <ele>2185.3</ele>
        <time>2021-07-12T08:02:36Z</time>
      </trkpt>
      <trkpt lat="44.79606" lon="6.69955">
        <ele>2185.7</ele>
        <time>2021-07-12T08:03:07Z</time>
      </trkpt>
      <trkpt lat="44.79608" lon="6.6993">
        <ele>2186.7</ele>
        <time>2021-07-12T08:03:38Z</time>
      </trkpt>
      <trkpt lat="44.79616" lon="6.6989">
        <ele>2187.2</ele>
        <time>2021-07-12T08:04:09Z</time>
      </trkpt>
      <trkpt lat="44.79625" lon="6.69863">
        <ele>2187.8</ele>
        <time>2021-07-12T08:04:40Z</time>
      </trkpt>
      <trkpt lat="44.79627" lon="6.69835">
        <ele>2187.3</ele>
        <time>2021-07-12T08:05:10Z</time>
      </trkpt>
      <trkpt lat="44.79635" lon="6.69808">
        <ele>2185.1</ele>
        <time>2021-07-12T08:05:40Z</time>
      </trkpt>
      <trkpt lat="44.7964" lon="6.69778">
        <ele>2182.7</ele>
        <time>2021-07-12T08:06:12Z</time>
      </trkpt>
      <trkpt lat="44.79652" lon="6.69746">
        <ele>2180.1</ele>
        <time>2021-07-12T08:06:42Z</time>
      </trkpt>
      <trkpt lat="44.79645" lon="6.69717">
        <ele>2181.3</ele>
        <time>2021-07-12T08:07:12Z</time>
      </trkpt>
      <trkpt lat="44.79645" lon="6.69684">
        <ele>2181.3</ele>
        <time>2021-07-12T08:07:44Z</time>
      </trkpt>
      <trkpt lat="44.79635" lon="6.69654">
        <ele>2177.9</ele>
        <time>2021-07-12T08:08:14Z</time>
      </trkpt>
      <trkpt lat="44.79628" lon="6.69644">
        <ele>2174.4</ele>
        <time>2021-07-12T08:08:45Z</time>
      </trkpt>
      <trkpt lat="44.79631" lon="6.69639">
        <ele>2172.4</ele>
        <time>2021-07-12T08:09:15Z</time>
      </trkpt>
      <trkpt lat="44.79639" lon="6.69637">
        <ele>2168.9</ele>
        <time>2021-07-12T08:09:45Z</time>
      </trkpt>
      <trkpt lat="44.79661" lon="6.69639">
        <ele>2167.9</ele>
        <time>2021-07-12T08:10:16Z</time>
      </trkpt>
      <trkpt lat="44.79681" lon="6.69637">
        <ele>2161.6</ele>
        <time>2021-07-12T08:10:48Z</time>
      </trkpt>
      <trkpt lat="44.7971" lon="6.69634">
        <ele>2156.6</ele>
        <time>2021-07-12T08:11:18Z</time>
      </trkpt>
      <trkpt lat="44.79746" lon="6.69627">
        <ele>2154.3</ele>
        <time>2021-07-12T08:11:50Z</time>
      </trkpt>
      <trkpt lat="44.79758" lon="6.69618">
        <ele>2155.7</ele>
        <time>2021-07-12T08:12:20Z</time>
      </trkpt>
      <trkpt lat="44.79761" lon="6.69593">
        <ele>2156.2</ele>
        <time>2021-07-12T08:12:50Z</time>
      </trkpt>
      <trkpt lat="44.79768" lon="6.69567">
        <ele>2154.5</ele>
        <time>2021-07-12T08:13:21Z</time>
      </trkpt>
      <trkpt lat="44.79784" lon="6.69539">
        <ele>2150</ele>
        <time>2021-07-12T08:13:52Z</time>
      </trkpt>
      <trkpt lat="44.79781" lon="6.69516">
        <ele>2144.8</ele>
        <time>2021-07-12T08:14:24Z</time>
      </trkpt>
      <trkpt lat="44.79781" lon="6.69517">
        <ele>2144.5</ele>
        <time>2021-07-12T08:14:54Z</time>
      </trkpt>
      <trkpt lat="44.79781" lon="6.69517">
        <ele>2144.6</ele>
        <time>2021-07-12T08:15:24Z</time>
      </trkpt>
      <trkpt lat="44.79777" lon="6.69511">
        <ele>2141.8</ele>
        <time>2021-07-12T08:15:54Z</time>
      </trkpt>
      <trkpt lat="44.79775" lon="6.6951">
        <ele>2141.4</ele>
        <time>2021-07-12T08:16:24Z</time>
      </trkpt>
      <trkpt lat="44.79775" lon="6.6951">
        <ele>2141.6</ele>
        <time>2021-07-12T08:16:55Z</time>
      </trkpt>
      <trkpt lat="44.79775" lon="6.6951">
        <ele>2142.5</ele>
        <time>2021-07-12T08:17:26Z</time>
      </trkpt>
      <trkpt lat="44.79775" lon="6.6951">
        <ele>2140.2</ele>
        <time>2021-07-12T08:17:56Z</time>
      </trkpt>
      <trkpt lat="44.7979" lon="6.69488">
        <ele>2140.2</ele>
        <time>2021-07-12T08:18:27Z</time>
      </trkpt>
      <trkpt lat="44.79816" lon="6.69474">
        <ele>2140.8</ele>
        <time>2021-07-12T08:18:58Z</time>
      </trkpt>
      <trkpt lat="44.79834" lon="6.69447">
        <ele>2144.6</ele>
        <time>2021-07-12T08:19:28Z</time>
      </trkpt>
      <trkpt lat="44.79846" lon="6.69417">
        <ele>2150.5</ele>
        <time>2021-07-12T08:19:58Z</time>
      </trkpt>
      <trkpt lat="44.79854" lon="6.69402">
        <ele>2155.6</ele>
        <time>2021-07-12T08:20:28Z</time>
      </trkpt>
      <trkpt lat="44.79857" lon="6.69396">
        <ele>2155.3</ele>
        <time>2021-07-12T08:20:59Z</time>
      </trkpt>
      <trkpt lat="44.79869" lon="6.69366">
        <ele>2154.7</ele>
        <time>2021-07-12T08:21:30Z</time>
      </trkpt>
      <trkpt lat="44.7989" lon="6.6935">
        <ele>2154.8</ele>
        <time>2021-07-12T08:22:01Z</time>
      </trkpt>
      <trkpt lat="44.79901" lon="6.69333">
        <ele>2151.3</ele>
        <time>2021-07-12T08:22:31Z</time>
      </trkpt>
      <trkpt lat="44.79909" lon="6.69335">
        <ele>2147.2</ele>
        <time>2021-07-12T08:23:01Z</time>
      </trkpt>
      <trkpt lat="44.79919" lon="6.69333">
        <ele>2142.7</ele>
        <time>2021-07-12T08:23:32Z</time>
      </trkpt>
      <trkpt lat="44.79931" lon="6.69325">
        <ele>2142.4</ele>
        <time>2021-07-12T08:24:02Z</time>
      </trkpt>
      <trkpt lat="44.79939" lon="6.69304">
        <ele>2142.2</ele>
        <time>2021-07-12T08:24:33Z</time>
      </trkpt>
      <trkpt lat="44.79954" lon="6.69282">
        <ele>2144.3</ele>
        <time>2021-07-12T08:25:04Z</time>
      </trkpt>
      <trkpt lat="44.79961" lon="6.69252">
        <ele>2148.8</ele>
        <time>2021-07-12T08:25:34Z</time>
      </trkpt>
      <trkpt lat="44.79951" lon="6.69221">
        <ele>2151.5</ele>
        <time>2021-07-12T08:26:04Z</time>
      </trkpt>
      <trkpt lat="44.79938" lon="6.69196">
        <ele>2155.3</ele>
        <time>2021-07-12T08:26:35Z</time>
      </trkpt>
      <trkpt lat="44.79925" lon="6.69175">
        <ele>2159.9</ele>
        <time>2021-07-12T08:27:06Z</time>
      </trkpt>
      <trkpt lat="44.79909" lon="6.69151">
        <ele>2164.9</ele>
        <time>2021-07-12T08:27:37Z</time>
      </trkpt>
      <trkpt lat="44.79886" lon="6.69128">
        <ele>2167.6</ele>
        <time>2021-07-12T08:28:07Z</time>
      </trkpt>
      <trkpt lat="44.7986" lon="6.691">
        <ele>2169</ele>
        <time>2021-07-12T08:28:37Z</time>
      </trkpt>
      <trkpt lat="44.79834" lon="6.6907">
        <ele>2169.1</ele>
        <time>2021-07-12T08:29:08Z</time>
      </trkpt>
      <trkpt lat="44.79804" lon="6.69037">
        <ele>2169.6</ele>
        <time>2021-07-12T08:29:39Z</time>
      </trkpt>
      <trkpt lat="44.79781" lon="6.69008">
        <ele>2171.6</ele>
        <time>2021-07-12T08:30:09Z</time>
      </trkpt>
      <trkpt lat="44.79751" lon="6.68992">
        <ele>2170.8</ele>
        <time>2021-07-12T08:30:40Z</time>
      </trkpt>
      <trkpt lat="44.79722" lon="6.68993">
        <ele>2178.2</ele>
        <time>2021-07-12T08:31:11Z</time>
      </trkpt>
      <trkpt lat="44.79695" lon="6.68974">
        <ele>2180.2</ele>
        <time>2021-07-12T08:31:42Z</time>
      </trkpt>
      <trkpt lat="44.79667" lon="6.68957">
        <ele>2183.3</ele>
        <time>2021-07-12T08:32:12Z</time>
      </trkpt>
      <trkpt lat="44.79662" lon="6.68957">
        <ele>2183.1</ele>
        <time>2021-07-12T08:32:43Z</time>
      </trkpt>
      <trkpt lat="44.79662" lon="6.68957">
        <ele>2180.9</ele>
        <time>2021-07-12T08:33:13Z</time>
      </trkpt>
      <trkpt lat="44.79662" lon="6.68957">
        <ele>2181.2</ele>
        <time>2021-07-12T08:33:43Z</time>
      </trkpt>
      <trkpt lat="44.79662" lon="6.68957">
        <ele>2181.3</ele>
        <time>2021-07-12T08:34:14Z</time>
      </trkpt>
      <trkpt lat="44.79662" lon="6.68957">
        <ele>2181.1</ele>
        <time>2021-07-12T08:34:45Z</time>
      </trkpt>
      <trkpt lat="44.79662" lon="6.68957">
        <ele>2181.8</ele>
        <time>2021-07-12T08:35:16Z</time>
      </trkpt>
      <trkpt lat="44.79664" lon="6.68958">
        <ele>2181.9</ele>
        <time>2021-07-12T08:35:46Z</time>
      </trkpt>
      <trkpt lat="44.79664" lon="6.68958">
        <ele>2181.6</ele>
        <time>2021-07-12T08:36:17Z</time>
      </trkpt>
      <trkpt lat="44.79664" lon="6.68958">
        <ele>2183.8</ele>
        <time>2021-07-12T08:36:48Z</time>
      </trkpt>
      <trkpt lat="44.79663" lon="6.68958">
        <ele>2182.7</ele>
        <time>2021-07-12T08:37:18Z</time>
      </trkpt>
      <trkpt lat="44.79663" lon="6.68958">
        <ele>2184.3</ele>
        <time>2021-07-12T08:37:48Z</time>
      </trkpt>
      <trkpt lat="44.79663" lon="6.68958">
        <ele>2182.8</ele>
        <time>2021-07-12T08:38:19Z</time>
      </trkpt>
      <trkpt lat="44.79663" lon="6.68958">
        <ele>2183.1</ele>
        <time>2021-07-12T08:38:49Z</time>
      </trkpt>
      <trkpt lat="44.79663" lon="6.68958">
        <ele>2182.8</ele>
        <time>2021-07-12T08:39:20Z</time>
      </trkpt>
      <trkpt lat="44.79651" lon="6.68955">
        <ele>2185</ele>
        <time>2021-07-12T08:39:51Z</time>
      </trkpt>
      <trkpt lat="44.79636" lon="6.68946">
        <ele>2186.8</ele>
        <time>2021-07-12T08:40:22Z</time>
      </trkpt>
      <trkpt lat="44.7963" lon="6.68932">
        <ele>2191.7</ele>
        <time>2021-07-12T08:40:52Z</time>
      </trkpt>
      <trkpt lat="44.79621" lon="6.68913">
        <ele>2196.2</ele>
        <time>2021-07-12T08:41:23Z</time>
      </trkpt>
      <trkpt lat="44.79608" lon="6.689">
        <ele>2199.1</ele>
        <time>2021-07-12T08:41:54Z</time>
      </trkpt>
      <trkpt lat="44.79595" lon="6.68887">
        <ele>2203.7</ele>
        <time>2021-07-12T08:42:25Z</time>
      </trkpt>
      <trkpt lat="44.79579" lon="6.68875">
        <ele>2207.5</ele>
        <time>2021-07-12T08:42:56Z</time>
      </trkpt>
      <trkpt lat="44.79563" lon="6.68873">
        <ele>2213.3</ele>
        <time>2021-07-12T08:43:27Z</time>
      </trkpt>
      <trkpt lat="44.79549" lon="6.68861">
        <ele>2218.7</ele>
        <time>2021-07-12T08:43:58Z</time>
      </trkpt>
      <trkpt lat="44.7953" lon="6.68847">
        <ele>2221.5</ele>
        <time>2021-07-12T08:44:28Z</time>
      </trkpt>
      <trkpt lat="44.79513" lon="6.68837">
        <ele>2225.2</ele>
        <time>2021-07-12T08:44:59Z</time>
      </trkpt>
      <trkpt lat="44.79494" lon="6.68828">
        <ele>2229.3</ele>
        <time>2021-07-12T08:45:30Z</time>
      </trkpt>
      <trkpt lat="44.7948" lon="6.68815">
        <ele>2234.9</ele>
        <time>2021-07-12T08:46:01Z</time>
      </trkpt>
      <trkpt lat="44.79466" lon="6.68809">
        <ele>2240.1</ele>
        <time>2021-07-12T08:46:31Z</time>
      </trkpt>
      <trkpt lat="44.79447" lon="6.68808">
        <ele>2244.4</ele>
        <time>2021-07-12T08:47:02Z</time>
      </trkpt>
      <trkpt lat="44.79448" lon="6.68783">
        <ele>2247.6</ele>
        <time>2021-07-12T08:47:33Z</time>
      </trkpt>
      <trkpt lat="44.79443" lon="6.68764">
        <ele>2251.4</ele>
        <time>2021-07-12T08:48:03Z</time>
      </trkpt>
      <trkpt lat="44.79439" lon="6.68743">
        <ele>2255.7</ele>
        <time>2021-07-12T08:48:34Z</time>
      </trkpt>
      <trkpt lat="44.79432" lon="6.68724">
        <ele>2261.1</ele>
        <time>2021-07-12T08:49:05Z</time>
      </trkpt>
      <trkpt lat="44.79418" lon="6.68701">
        <ele>2262.9</ele>
        <time>2021-07-12T08:49:35Z</time>
      </trkpt>
      <trkpt lat="44.79403" lon="6.68672">
        <ele>2266.6</ele>
        <time>2021-07-12T08:50:06Z</time>
      </trkpt>
      <trkpt lat="44.79393" lon="6.68632">
        <ele>2263.5</ele>
        <time>2021-07-12T08:50:36Z</time>
      </trkpt>
      <trkpt lat="44.79365" lon="6.68612">
        <ele>2264</ele>
        <time>2021-07-12T08:51:06Z</time>
      </trkpt>
      <trkpt lat="44.79347" lon="6.68571">
        <ele>2265.3</ele>
        <time>2021-07-12T08:51:37Z</time>
      </trkpt>
      <trkpt lat="44.7933" lon="6.68541">
        <ele>2269.6</ele>
        <time>2021-07-12T08:52:08Z</time>
      </trkpt>
      <trkpt lat="44.79323" lon="6.68509">
        <ele>2267.9</ele>
        <time>2021-07-12T08:52:39Z</time>
      </trkpt>
      <trkpt lat="44.79317" lon="6.68472">
        <ele>2266</ele>
        <time>2021-07-12T08:53:09Z</time>
      </trkpt>
      <trkpt lat="44.79313" lon="6.68443">
        <ele>2269.3</ele>
        <time>2021-07-12T08:53:39Z</time>
      </trkpt>
      <trkpt lat="44.79316" lon="6.68413">
        <ele>2274.7</ele>
        <time>2021-07-12T08:54:09Z</time>
      </trkpt>
      <trkpt lat="44.79315" lon="6.68382">
        <ele>2282</ele>
        <time>2021-07-12T08:54:40Z</time>
      </trkpt>
      <trkpt lat="44.79316" lon="6.68356">
        <ele>2287.8</ele>
        <time>2021-07-12T08:55:11Z</time>
      </trkpt>
      <trkpt lat="44.79312" lon="6.68332">
        <ele>2292.8</ele>
        <time>2021-07-12T08:55:42Z</time>
      </trkpt>
      <trkpt lat="44.79304" lon="6.68309">
        <ele>2298.3</ele>
        <time>2021-07-12T08:56:12Z</time>
      </trkpt>
      <trkpt lat="44.793" lon="6.68285">
        <ele>2302.9</ele>
        <time>2021-07-12T08:56:43Z</time>
      </trkpt>
      <trkpt lat="44.79299" lon="6.68261">
        <ele>2307.5</ele>
        <time>2021-07-12T08:57:13Z</time>
      </trkpt>
      <trkpt lat="44.79298" lon="6.68234">
        <ele>2312.6</ele>
        <time>2021-07-12T08:57:44Z</time>
      </trkpt>
      <trkpt lat="44.79299" lon="6.68215">
        <ele>2312.9</ele>
        <time>2021-07-12T08:58:14Z</time>
      </trkpt>
      <trkpt lat="44.79291" lon="6.68184">
        <ele>2314.3</ele>
        <time>2021-07-12T08:58:44Z</time>
      </trkpt>
      <trkpt lat="44.79283" lon="6.68156">
        <ele>2317.9</ele>
        <time>2021-07-12T08:59:14Z</time>
      </trkpt>
      <trkpt lat="44.79279" lon="6.68137">
        <ele>2321.1</ele>
        <time>2021-07-12T08:59:45Z</time>
      </trkpt>
      <trkpt lat="44.79272" lon="6.68102">
        <ele>2322.8</ele>
        <time>2021-07-12T09:00:16Z</time>
      </trkpt>
      <trkpt lat="44.79261" lon="6.68069">
        <ele>2321</ele>
        <time>2021-07-12T09:00:46Z</time>
      </trkpt>
      <trkpt lat="44.79243" lon="6.68031">
        <ele>2320.3</ele>
        <time>2021-07-12T09:01:16Z</time>
      </trkpt>
      <trkpt lat="44.79226" lon="6.67995">
        <ele>2322.4</ele>
        <time>2021-07-12T09:01:47Z</time>
      </trkpt>
      <trkpt lat="44.79219" lon="6.67954">
        <ele>2326.2</ele>
        <time>2021-07-12T09:02:17Z</time>
      </trkpt>
      <trkpt lat="44.79214" lon="6.67917">
        <ele>2329.8</ele>
        <time>2021-07-12T09:02:48Z</time>
      </trkpt>
      <trkpt lat="44.79204" lon="6.6788">
        <ele>2329.9</ele>
        <time>2021-07-12T09:03:18Z</time>
      </trkpt>
      <trkpt lat="44.79207" lon="6.67832">
        <ele>2329.3</ele>
        <time>2021-07-12T09:03:49Z</time>
      </trkpt>
      <trkpt lat="44.79202" lon="6.67799">
        <ele>2331.3</ele>
        <time>2021-07-12T09:04:19Z</time>
      </trkpt>
      <trkpt lat="44.79198" lon="6.67757">
        <ele>2333.5</ele>
        <time>2021-07-12T09:04:50Z</time>
      </trkpt>
      <trkpt lat="44.79199" lon="6.67716">
        <ele>2337.1</ele>
        <time>2021-07-12T09:05:21Z</time>
      </trkpt>
      <trkpt lat="44.79193" lon="6.67675">
        <ele>2337.3</ele>
        <time>2021-07-12T09:05:51Z</time>
      </trkpt>
      <trkpt lat="44.79185" lon="6.6763">
        <ele>2335</ele>
        <time>2021-07-12T09:06:21Z</time>
      </trkpt>
      <trkpt lat="44.79182" lon="6.6758">
        <ele>2334.9</ele>
        <time>2021-07-12T09:06:51Z</time>
      </trkpt>
      <trkpt lat="44.79173" lon="6.67535">
        <ele>2336.6</ele>
        <time>2021-07-12T09:07:21Z</time>
      </trkpt>
      <trkpt lat="44.79171" lon="6.67509">
        <ele>2335.5</ele>
        <time>2021-07-12T09:07:51Z</time>
      </trkpt>
      <trkpt lat="44.79175" lon="6.67498">
        <ele>2337.7</ele>
        <time>2021-07-12T09:08:46Z</time>
      </trkpt>
      <trkpt lat="44.79177" lon="6.67459">
        <ele>2342.5</ele>
        <time>2021-07-12T09:09:18Z</time>
      </trkpt>
      <trkpt lat="44.79179" lon="6.67428">
        <ele>2347.1</ele>
        <time>2021-07-12T09:09:49Z</time>
      </trkpt>
      <trkpt lat="44.79182" lon="6.67389">
        <ele>2352.1</ele>
        <time>2021-07-12T09:10:19Z</time>
      </trkpt>
      <trkpt lat="44.79185" lon="6.6735">
        <ele>2354.7</ele>
        <time>2021-07-12T09:10:49Z</time>
      </trkpt>
      <trkpt lat="44.79186" lon="6.67319">
        <ele>2358.9</ele>
        <time>2021-07-12T09:11:20Z</time>
      </trkpt>
      <trkpt lat="44.79189" lon="6.67292">
        <ele>2364.6</ele>
        <time>2021-07-12T09:11:51Z</time>
      </trkpt>
      <trkpt lat="44.79189" lon="6.67272">
        <ele>2370.8</ele>
        <time>2021-07-12T09:12:21Z</time>
      </trkpt>
      <trkpt lat="44.79186" lon="6.6725">
        <ele>2373.5</ele>
        <time>2021-07-12T09:12:51Z</time>
      </trkpt>
      <trkpt lat="44.79182" lon="6.6723">
        <ele>2376.4</ele>
        <time>2021-07-12T09:13:23Z</time>
      </trkpt>
      <trkpt lat="44.79178" lon="6.67207">
        <ele>2380.1</ele>
        <time>2021-07-12T09:13:54Z</time>
      </trkpt>
      <trkpt lat="44.79175" lon="6.67184">
        <ele>2384.5</ele>
        <time>2021-07-12T09:14:24Z</time>
      </trkpt>
      <trkpt lat="44.7917" lon="6.67158">
        <ele>2388.9</ele>
        <time>2021-07-12T09:14:55Z</time>
      </trkpt>
      <trkpt lat="44.79164" lon="6.67139">
        <ele>2393.1</ele>
        <time>2021-07-12T09:15:25Z</time>
      </trkpt>
      <trkpt lat="44.79158" lon="6.67119">
        <ele>2396.5</ele>
        <time>2021-07-12T09:15:56Z</time>
      </trkpt>
      <trkpt lat="44.7914" lon="6.67106">
        <ele>2400.3</ele>
        <time>2021-07-12T09:16:26Z</time>
      </trkpt>
      <trkpt lat="44.79126" lon="6.67089">
        <ele>2402.9</ele>
        <time>2021-07-12T09:16:57Z</time>
      </trkpt>
      <trkpt lat="44.79107" lon="6.67064">
        <ele>2403.7</ele>
        <time>2021-07-12T09:17:28Z</time>
      </trkpt>
      <trkpt lat="44.79093" lon="6.67058">
        <ele>2407.9</ele>
        <time>2021-07-12T09:17:58Z</time>
      </trkpt>
      <trkpt lat="44.79076" lon="6.67053">
        <ele>2412.7</ele>
        <time>2021-07-12T09:18:30Z</time>
      </trkpt>
      <trkpt lat="44.79053" lon="6.6703">
        <ele>2411.4</ele>
        <time>2021-07-12T09:19:00Z</time>
      </trkpt>
      <trkpt lat="44.79034" lon="6.67006">
        <ele>2414.2</ele>
        <time>2021-07-12T09:19:31Z</time>
      </trkpt>
      <trkpt lat="44.79009" lon="6.6701">
        <ele>2416.6</ele>
        <time>2021-07-12T09:20:02Z</time>
      </trkpt>
      <trkpt lat="44.78988" lon="6.67015">
        <ele>2419.7</ele>
        <time>2021-07-12T09:20:32Z</time>
      </trkpt>
      <trkpt lat="44.78967" lon="6.67021">
        <ele>2423.5</ele>
        <time>2021-07-12T09:21:03Z</time>
      </trkpt>
      <trkpt lat="44.78946" lon="6.67026">
        <ele>2428</ele>
        <time>2021-07-12T09:21:33Z</time>
      </trkpt>
      <trkpt lat="44.78922" lon="6.6703">
        <ele>2430.2</ele>
        <time>2021-07-12T09:22:03Z</time>
      </trkpt>
      <trkpt lat="44.789" lon="6.67029">
        <ele>2431.4</ele>
        <time>2021-07-12T09:22:35Z</time>
      </trkpt>
      <trkpt lat="44.78871" lon="6.67033">
        <ele>2434.1</ele>
        <time>2021-07-12T09:23:06Z</time>
      </trkpt>
      <trkpt lat="44.78843" lon="6.67053">
        <ele>2436</ele>
        <time>2021-07-12T09:23:36Z</time>
      </trkpt>
      <trkpt lat="44.7881" lon="6.67064">
        <ele>2434.9</ele>
        <time>2021-07-12T09:24:06Z</time>
      </trkpt>
      <trkpt lat="44.78795" lon="6.67068">
        <ele>2434.9</ele>
        <time>2021-07-12T09:24:37Z</time>
      </trkpt>
      <trkpt lat="44.78786" lon="6.67064">
        <ele>2436.2</ele>
        <time>2021-07-12T09:25:17Z</time>
      </trkpt>
      <trkpt lat="44.78753" lon="6.67084">
        <ele>2432.9</ele>
        <time>2021-07-12T09:25:47Z</time>
      </trkpt>
      <trkpt lat="44.78724" lon="6.67109">
        <ele>2433.7</ele>
        <time>2021-07-12T09:26:18Z</time>
      </trkpt>
      <trkpt lat="44.78701" lon="6.67146">
        <ele>2436.6</ele>
        <time>2021-07-12T09:26:48Z</time>
      </trkpt>
      <trkpt lat="44.78675" lon="6.67161">
        <ele>2437.9</ele>
        <time>2021-07-12T09:27:19Z</time>
      </trkpt>
      <trkpt lat="44.78654" lon="6.6716">
        <ele>2442.2</ele>
        <time>2021-07-12T09:27:49Z</time>
      </trkpt>
      <trkpt lat="44.78624" lon="6.67178">
        <ele>2447.1</ele>
        <time>2021-07-12T09:28:20Z</time>
      </trkpt>
      <trkpt lat="44.78604" lon="6.67196">
        <ele>2445.7</ele>
        <time>2021-07-12T09:28:50Z</time>
      </trkpt>
      <trkpt lat="44.78573" lon="6.67208">
        <ele>2447.2</ele>
        <time>2021-07-12T09:29:20Z</time>
      </trkpt>
      <trkpt lat="44.7855" lon="6.67224">
        <ele>2448.7</ele>
        <time>2021-07-12T09:29:51Z</time>
      </trkpt>
      <trkpt lat="44.78526" lon="6.67246">
        <ele>2451.2</ele>
        <time>2021-07-12T09:30:21Z</time>
      </trkpt>
      <trkpt lat="44.78503" lon="6.67267">
        <ele>2452.3</ele>
        <time>2021-07-12T09:30:52Z</time>
      </trkpt>
      <trkpt lat="44.78472" lon="6.67282">
        <ele>2455.1</ele>
        <time>2021-07-12T09:31:23Z</time>
      </trkpt>
      <trkpt lat="44.78448" lon="6.67303">
        <ele>2457.6</ele>
        <time>2021-07-12T09:31:53Z</time>
      </trkpt>
      <trkpt lat="44.78417" lon="6.67321">
        <ele>2456.5</ele>
        <time>2021-07-12T09:32:24Z</time>
      </trkpt>
      <trkpt lat="44.78399" lon="6.6734">
        <ele>2452.8</ele>
        <time>2021-07-12T09:32:54Z</time>
      </trkpt>
      <trkpt lat="44.78373" lon="6.67366">
        <ele>2454.3</ele>
        <time>2021-07-12T09:33:25Z</time>
      </trkpt>
      <trkpt lat="44.78351" lon="6.67388">
        <ele>2454.3</ele>
        <time>2021-07-12T09:33:57Z</time>
      </trkpt>
      <trkpt lat="44.78331" lon="6.6741">
        <ele>2457</ele>
        <time>2021-07-12T09:34:27Z</time>
      </trkpt>
      <trkpt lat="44.7832" lon="6.67418">
        <ele>2463.1</ele>
        <time>2021-07-12T09:34:57Z</time>
      </trkpt>
      <trkpt lat="44.78305" lon="6.6742">
        <ele>2466.6</ele>
        <time>2021-07-12T09:35:28Z</time>
      </trkpt>
      <trkpt lat="44.78297" lon="6.67439">
        <ele>2466.9</ele>
        <time>2021-07-12T09:35:59Z</time>
      </trkpt>
      <trkpt lat="44.7829" lon="6.67448">
        <ele>2466.1</ele>
        <time>2021-07-12T09:36:30Z</time>
      </trkpt>
      <trkpt lat="44.7829" lon="6.67448">
        <ele>2466.3</ele>
        <time>2021-07-12T09:37:01Z</time>
      </trkpt>
      <trkpt lat="44.78274" lon="6.67469">
        <ele>2467.2</ele>
        <time>2021-07-12T09:37:32Z</time>
      </trkpt>
      <trkpt lat="44.78268" lon="6.67507">
        <ele>2467.5</ele>
        <time>2021-07-12T09:38:02Z</time>
      </trkpt>
      <trkpt lat="44.78266" lon="6.67513">
        <ele>2465.7</ele>
        <time>2021-07-12T09:38:32Z</time>
      </trkpt>
      <trkpt lat="44.78265" lon="6.67516">
        <ele>2465.2</ele>
        <time>2021-07-12T09:39:03Z</time>
      </trkpt>
      <trkpt lat="44.7824" lon="6.67551">
        <ele>2468.2</ele>
        <time>2021-07-12T09:39:34Z</time>
      </trkpt>
      <trkpt lat="44.78219" lon="6.67572">
        <ele>2467.7</ele>
        <time>2021-07-12T09:40:05Z</time>
      </trkpt>
      <trkpt lat="44.78195" lon="6.67603">
        <ele>2460.4</ele>
        <time>2021-07-12T09:40:35Z</time>
      </trkpt>
      <trkpt lat="44.78168" lon="6.67633">
        <ele>2456.8</ele>
        <time>2021-07-12T09:41:06Z</time>
      </trkpt>
      <trkpt lat="44.78159" lon="6.67673">
        <ele>2457.5</ele>
        <time>2021-07-12T09:41:36Z</time>
      </trkpt>
      <trkpt lat="44.78146" lon="6.67705">
        <ele>2464</ele>
        <time>2021-07-12T09:42:07Z</time>
      </trkpt>
      <trkpt lat="44.78129" lon="6.67745">
        <ele>2466.8</ele>
        <time>2021-07-12T09:42:38Z</time>
      </trkpt>
      <trkpt lat="44.78116" lon="6.67788">
        <ele>2468.2</ele>
        <time>2021-07-12T09:43:09Z</time>
      </trkpt>
      <trkpt lat="44.78105" lon="6.67809">
        <ele>2472.7</ele>
        <time>2021-07-12T09:43:39Z</time>
      </trkpt>
      <trkpt lat="44.78096" lon="6.67826">
        <ele>2475.9</ele>
        <time>2021-07-12T09:44:10Z</time>
      </trkpt>
      <trkpt lat="44.78078" lon="6.67846">
        <ele>2474.2</ele>
        <time>2021-07-12T09:44:41Z</time>
      </trkpt>
      <trkpt lat="44.78057" lon="6.6788">
        <ele>2474.4</ele>
        <time>2021-07-12T09:45:12Z</time>
      </trkpt>
      <trkpt lat="44.78036" lon="6.67904">
        <ele>2477.6</ele>
        <time>2021-07-12T09:45:43Z</time>
      </trkpt>
      <trkpt lat="44.78022" lon="6.67927">
        <ele>2480.7</ele>
        <time>2021-07-12T09:46:14Z</time>
      </trkpt>
      <trkpt lat="44.78004" lon="6.67949">
        <ele>2485.7</ele>
        <time>2021-07-12T09:46:45Z</time>
      </trkpt>
      <trkpt lat="44.7799" lon="6.67976">
        <ele>2491.7</ele>
        <time>2021-07-12T09:47:15Z</time>
      </trkpt>
      <trkpt lat="44.77975" lon="6.68">
        <ele>2494.9</ele>
        <time>2021-07-12T09:47:45Z</time>
      </trkpt>
      <trkpt lat="44.77952" lon="6.68016">
        <ele>2500.9</ele>
        <time>2021-07-12T09:48:16Z</time>
      </trkpt>
      <trkpt lat="44.77933" lon="6.68035">
        <ele>2505.9</ele>
        <time>2021-07-12T09:48:47Z</time>
      </trkpt>
      <trkpt lat="44.77915" lon="6.68042">
        <ele>2510.2</ele>
        <time>2021-07-12T09:49:17Z</time>
      </trkpt>
      <trkpt lat="44.77907" lon="6.68046">
        <ele>2507.1</ele>
        <time>2021-07-12T09:51:41Z</time>
      </trkpt>
      <trkpt lat="44.77878" lon="6.68052">
        <ele>2509.7</ele>
        <time>2021-07-12T09:52:11Z</time>
      </trkpt>
      <trkpt lat="44.77845" lon="6.68049">
        <ele>2508.6</ele>
        <time>2021-07-12T09:52:42Z</time>
      </trkpt>
      <trkpt lat="44.77822" lon="6.68062">
        <ele>2507.4</ele>
        <time>2021-07-12T09:53:12Z</time>
      </trkpt>
      <trkpt lat="44.77791" lon="6.68079">
        <ele>2504.5</ele>
        <time>2021-07-12T09:53:42Z</time>
      </trkpt>
      <trkpt lat="44.77759" lon="6.68094">
        <ele>2504.4</ele>
        <time>2021-07-12T09:54:13Z</time>
      </trkpt>
      <trkpt lat="44.77726" lon="6.68111">
        <ele>2505.4</ele>
        <time>2021-07-12T09:54:43Z</time>
      </trkpt>
      <trkpt lat="44.77696" lon="6.68131">
        <ele>2504.8</ele>
        <time>2021-07-12T09:55:14Z</time>
      </trkpt>
      <trkpt lat="44.7768" lon="6.68158">
        <ele>2505.6</ele>
        <time>2021-07-12T09:55:45Z</time>
      </trkpt>
      <trkpt lat="44.7767" lon="6.68182">
        <ele>2504.4</ele>
        <time>2021-07-12T09:56:15Z</time>
      </trkpt>
      <trkpt lat="44.77659" lon="6.68199">
        <ele>2504.5</ele>
        <time>2021-07-12T09:56:46Z</time>
      </trkpt>
      <trkpt lat="44.77653" lon="6.68213">
        <ele>2510.8</ele>
        <time>2021-07-12T09:57:16Z</time>
      </trkpt>
      <trkpt lat="44.77647" lon="6.68223">
        <ele>2517.7</ele>
        <time>2021-07-12T09:57:47Z</time>
      </trkpt>
      <trkpt lat="44.77655" lon="6.68232">
        <ele>2523.3</ele>
        <time>2021-07-12T09:58:26Z</time>
      </trkpt>
      <trkpt lat="44.77664" lon="6.6823">
        <ele>2526.1</ele>
        <time>2021-07-12T10:04:32Z</time>
      </trkpt>
      <trkpt lat="44.77655" lon="6.68231">
        <ele>2524.6</ele>
        <time>2021-07-12T10:19:37Z</time>
      </trkpt>
      <trkpt lat="44.77672" lon="6.68229">
        <ele>2525.2</ele>
        <time>2021-07-12T10:20:07Z</time>
      </trkpt>
      <trkpt lat="44.77663" lon="6.68235">
        <ele>2524.6</ele>
        <time>2021-07-12T10:20:37Z</time>
      </trkpt>
      <trkpt lat="44.77672" lon="6.68238">
        <ele>2524.4</ele>
        <time>2021-07-12T10:22:01Z</time>
      </trkpt>
      <trkpt lat="44.7769" lon="6.68243">
        <ele>2518.6</ele>
        <time>2021-07-12T10:22:32Z</time>
      </trkpt>
      <trkpt lat="44.77685" lon="6.68255">
        <ele>2513.2</ele>
        <time>2021-07-12T10:23:02Z</time>
      </trkpt>
      <trkpt lat="44.77682" lon="6.68267">
        <ele>2507.8</ele>
        <time>2021-07-12T10:23:32Z</time>
      </trkpt>
      <trkpt lat="44.77685" lon="6.68281">
        <ele>2500.8</ele>
        <time>2021-07-12T10:24:02Z</time>
      </trkpt>
      <trkpt lat="44.77688" lon="6.68302">
        <ele>2490.6</ele>
        <time>2021-07-12T10:24:32Z</time>
      </trkpt>
      <trkpt lat="44.77692" lon="6.68336">
        <ele>2484.4</ele>
        <time>2021-07-12T10:25:03Z</time>
      </trkpt>
      <trkpt lat="44.77697" lon="6.68379">
        <ele>2479.5</ele>
        <time>2021-07-12T10:25:33Z</time>
      </trkpt>
      <trkpt lat="44.77701" lon="6.68396">
        <ele>2475.8</ele>
        <time>2021-07-12T10:26:04Z</time>
      </trkpt>
      <trkpt lat="44.77707" lon="6.68418">
        <ele>2478</ele>
        <time>2021-07-12T10:26:35Z</time>
      </trkpt>
      <trkpt lat="44.77714" lon="6.68457">
        <ele>2473.2</ele>
        <time>2021-07-12T10:27:06Z</time>
      </trkpt>
      <trkpt lat="44.77715" lon="6.68479">
        <ele>2466.3</ele>
        <time>2021-07-12T10:27:37Z</time>
      </trkpt>
      <trkpt lat="44.77722" lon="6.68492">
        <ele>2465.9</ele>
        <time>2021-07-12T10:28:07Z</time>
      </trkpt>
      <trkpt lat="44.77728" lon="6.68513">
        <ele>2458.1</ele>
        <time>2021-07-12T10:28:38Z</time>
      </trkpt>
      <trkpt lat="44.7774" lon="6.68537">
        <ele>2450.2</ele>
        <time>2021-07-12T10:29:09Z</time>
      </trkpt>
      <trkpt lat="44.77747" lon="6.68564">
        <ele>2442.4</ele>
        <time>2021-07-12T10:29:40Z</time>
      </trkpt>
      <trkpt lat="44.77746" lon="6.68579">
        <ele>2434</ele>
        <time>2021-07-12T10:30:10Z</time>
      </trkpt>
      <trkpt lat="44.77756" lon="6.68597">
        <ele>2428.3</ele>
        <time>2021-07-12T10:30:40Z</time>
      </trkpt>
      <trkpt lat="44.77739" lon="6.68606">
        <ele>2424.6</ele>
        <time>2021-07-12T10:31:10Z</time>
      </trkpt>
      <trkpt lat="44.77722" lon="6.6861">
        <ele>2419.9</ele>
        <time>2021-07-12T10:31:41Z</time>
      </trkpt>
      <trkpt lat="44.77726" lon="6.68634">
        <ele>2412.5</ele>
        <time>2021-07-12T10:32:12Z</time>
      </trkpt>
      <trkpt lat="44.77734" lon="6.68651">
        <ele>2405.2</ele>
        <time>2021-07-12T10:32:43Z</time>
      </trkpt>
      <trkpt lat="44.77738" lon="6.68673">
        <ele>2396.6</ele>
        <time>2021-07-12T10:33:14Z</time>
      </trkpt>
      <trkpt lat="44.77736" lon="6.68693">
        <ele>2387.3</ele>
        <time>2021-07-12T10:33:45Z</time>
      </trkpt>
      <trkpt lat="44.77763" lon="6.68701">
        <ele>2381.5</ele>
        <time>2021-07-12T10:34:16Z</time>
      </trkpt>
      <trkpt lat="44.77772" lon="6.68715">
        <ele>2376.9</ele>
        <time>2021-07-12T10:34:47Z</time>
      </trkpt>
      <trkpt lat="44.77782" lon="6.68731">
        <ele>2375.6</ele>
        <time>2021-07-12T10:35:17Z</time>
      </trkpt>
      <trkpt lat="44.77797" lon="6.68755">
        <ele>2368</ele>
        <time>2021-07-12T10:35:48Z</time>
      </trkpt>
      <trkpt lat="44.77809" lon="6.68783">
        <ele>2360.9</ele>
        <time>2021-07-12T10:36:19Z</time>
      </trkpt>
      <trkpt lat="44.7782" lon="6.68805">
        <ele>2354.5</ele>
        <time>2021-07-12T10:36:50Z</time>
      </trkpt>
      <trkpt lat="44.7783" lon="6.6883">
        <ele>2347.8</ele>
        <time>2021-07-12T10:37:21Z</time>
      </trkpt>
      <trkpt lat="44.77822" lon="6.68837">
        <ele>2344.7</ele>
        <time>2021-07-12T10:38:03Z</time>
      </trkpt>
      <trkpt lat="44.77809" lon="6.68855">
        <ele>2340.3</ele>
        <time>2021-07-12T10:38:34Z</time>
      </trkpt>
      <trkpt lat="44.77795" lon="6.68872">
        <ele>2331.9</ele>
        <time>2021-07-12T10:39:04Z</time>
      </trkpt>
      <trkpt lat="44.77783" lon="6.68887">
        <ele>2322.9</ele>
        <time>2021-07-12T10:39:34Z</time>
      </trkpt>
      <trkpt lat="44.77766" lon="6.68904">
        <ele>2313.2</ele>
        <time>2021-07-12T10:40:05Z</time>
      </trkpt>
      <trkpt lat="44.77747" lon="6.68909">
        <ele>2306.6</ele>
        <time>2021-07-12T10:40:35Z</time>
      </trkpt>
      <trkpt lat="44.77755" lon="6.68924">
        <ele>2307.1</ele>
        <time>2021-07-12T10:41:06Z</time>
      </trkpt>
      <trkpt lat="44.77769" lon="6.68956">
        <ele>2301.4</ele>
        <time>2021-07-12T10:41:36Z</time>
      </trkpt>
      <trkpt lat="44.77779" lon="6.68991">
        <ele>2292.1</ele>
        <time>2021-07-12T10:42:06Z</time>
      </trkpt>
      <trkpt lat="44.77799" lon="6.69021">
        <ele>2284.6</ele>
        <time>2021-07-12T10:42:37Z</time>
      </trkpt>
      <trkpt lat="44.77822" lon="6.6905">
        <ele>2281.6</ele>
        <time>2021-07-12T10:43:08Z</time>
      </trkpt>
      <trkpt lat="44.77848" lon="6.69073">
        <ele>2283.2</ele>
        <time>2021-07-12T10:43:38Z</time>
      </trkpt>
      <trkpt lat="44.77871" lon="6.69104">
        <ele>2282.7</ele>
        <time>2021-07-12T10:44:09Z</time>
      </trkpt>
      <trkpt lat="44.77878" lon="6.6912">
        <ele>2278.5</ele>
        <time>2021-07-12T10:44:39Z</time>
      </trkpt>
      <trkpt lat="44.77896" lon="6.6915">
        <ele>2279.9</ele>
        <time>2021-07-12T10:45:09Z</time>
      </trkpt>
      <trkpt lat="44.77911" lon="6.69191">
        <ele>2273.8</ele>
        <time>2021-07-12T10:45:40Z</time>
      </trkpt>
      <trkpt lat="44.77921" lon="6.69226">
        <ele>2271.8</ele>
        <time>2021-07-12T10:46:10Z</time>
      </trkpt>
      <trkpt lat="44.77928" lon="6.69235">
        <ele>2271.7</ele>
        <time>2021-07-12T10:50:27Z</time>
      </trkpt>
      <trkpt lat="44.77942" lon="6.69263">
        <ele>2265.4</ele>
        <time>2021-07-12T10:50:58Z</time>
      </trkpt>
      <trkpt lat="44.77964" lon="6.6928">
        <ele>2256.4</ele>
        <time>2021-07-12T10:51:29Z</time>
      </trkpt>
      <trkpt lat="44.77987" lon="6.6929">
        <ele>2246.9</ele>
        <time>2021-07-12T10:51:59Z</time>
      </trkpt>
      <trkpt lat="44.78015" lon="6.69315">
        <ele>2235.8</ele>
        <time>2021-07-12T10:52:30Z</time>
      </trkpt>
      <trkpt lat="44.78047" lon="6.69316">
        <ele>2231.8</ele>
        <time>2021-07-12T10:53:01Z</time>
      </trkpt>
      <trkpt lat="44.78076" lon="6.69332">
        <ele>2230.5</ele>
        <time>2021-07-12T10:53:32Z</time>
      </trkpt>
      <trkpt lat="44.78081" lon="6.69376">
        <ele>2230.5</ele>
        <time>2021-07-12T10:54:02Z</time>
      </trkpt>
      <trkpt lat="44.78088" lon="6.69424">
        <ele>2228.1</ele>
        <time>2021-07-12T10:54:33Z</time>
      </trkpt>
      <trkpt lat="44.78089" lon="6.69472">
        <ele>2227.7</ele>
        <time>2021-07-12T10:55:04Z</time>
      </trkpt>
      <trkpt lat="44.78098" lon="6.69495">
        <ele>2229.1</ele>
        <time>2021-07-12T10:55:35Z</time>
      </trkpt>
      <trkpt lat="44.78112" lon="6.69525">
        <ele>2231</ele>
        <time>2021-07-12T10:56:06Z</time>
      </trkpt>
      <trkpt lat="44.7814" lon="6.69542">
        <ele>2230.4</ele>
        <time>2021-07-12T10:56:37Z</time>
      </trkpt>
      <trkpt lat="44.78161" lon="6.69546">
        <ele>2230.4</ele>
        <time>2021-07-12T10:57:08Z</time>
      </trkpt>
      <trkpt lat="44.78168" lon="6.69558">
        <ele>2226.6</ele>
        <time>2021-07-12T10:57:39Z</time>
      </trkpt>
      <trkpt lat="44.78169" lon="6.69576">
        <ele>2222.1</ele>
        <time>2021-07-12T10:58:09Z</time>
      </trkpt>
      <trkpt lat="44.78158" lon="6.69581">
        <ele>2216.4</ele>
        <time>2021-07-12T10:58:40Z</time>
      </trkpt>
      <trkpt lat="44.7817" lon="6.69589">
        <ele>2213.3</ele>
        <time>2021-07-12T10:59:10Z</time>
      </trkpt>
      <trkpt lat="44.78171" lon="6.69603">
        <ele>2212.5</ele>
        <time>2021-07-12T10:59:49Z</time>
      </trkpt>
      <trkpt lat="44.78169" lon="6.69624">
        <ele>2208.1</ele>
        <time>2021-07-12T11:00:20Z</time>
      </trkpt>
      <trkpt lat="44.7817" lon="6.69654">
        <ele>2201.9</ele>
        <time>2021-07-12T11:00:51Z</time>
      </trkpt>
      <trkpt lat="44.78168" lon="6.69684">
        <ele>2193.8</ele>
        <time>2021-07-12T11:01:22Z</time>
      </trkpt>
      <trkpt lat="44.78164" lon="6.69709">
        <ele>2184.8</ele>
        <time>2021-07-12T11:01:52Z</time>
      </trkpt>
      <trkpt lat="44.78158" lon="6.69734">
        <ele>2177.7</ele>
        <time>2021-07-12T11:02:23Z</time>
      </trkpt>
      <trkpt lat="44.78155" lon="6.69757">
        <ele>2170.1</ele>
        <time>2021-07-12T11:02:53Z</time>
      </trkpt>
      <trkpt lat="44.78146" lon="6.69777">
        <ele>2165.1</ele>
        <time>2021-07-12T11:03:24Z</time>
      </trkpt>
      <trkpt lat="44.78138" lon="6.69809">
        <ele>2155.9</ele>
        <time>2021-07-12T11:03:55Z</time>
      </trkpt>
      <trkpt lat="44.78125" lon="6.69829">
        <ele>2147.4</ele>
        <time>2021-07-12T11:04:26Z</time>
      </trkpt>
      <trkpt lat="44.78116" lon="6.69858">
        <ele>2138.6</ele>
        <time>2021-07-12T11:04:56Z</time>
      </trkpt>
      <trkpt lat="44.78107" lon="6.69886">
        <ele>2134.5</ele>
        <time>2021-07-12T11:05:26Z</time>
      </trkpt>
      <trkpt lat="44.78088" lon="6.6989">
        <ele>2129.2</ele>
        <time>2021-07-12T11:05:57Z</time>
      </trkpt>
      <trkpt lat="44.7807" lon="6.69899">
        <ele>2121.9</ele>
        <time>2021-07-12T11:06:27Z</time>
      </trkpt>
      <trkpt lat="44.78057" lon="6.69919">
        <ele>2115.8</ele>
        <time>2021-07-12T11:06:57Z</time>
      </trkpt>
      <trkpt lat="44.7804" lon="6.6995">
        <ele>2109.1</ele>
        <time>2021-07-12T11:07:28Z</time>
      </trkpt>
      <trkpt lat="44.78024" lon="6.69965">
        <ele>2101.8</ele>
        <time>2021-07-12T11:07:59Z</time>
      </trkpt>
      <trkpt lat="44.78016" lon="6.69972">
        <ele>2103.7</ele>
        <time>2021-07-12T11:12:27Z</time>
      </trkpt>
      <trkpt lat="44.77996" lon="6.69997">
        <ele>2098.7</ele>
        <time>2021-07-12T11:12:57Z</time>
      </trkpt>
      <trkpt lat="44.77989" lon="6.70013">
        <ele>2095.5</ele>
        <time>2021-07-12T11:13:27Z</time>
      </trkpt>
      <trkpt lat="44.77974" lon="6.70055">
        <ele>2087.8</ele>
        <time>2021-07-12T11:13:57Z</time>
      </trkpt>
      <trkpt lat="44.77964" lon="6.70095">
        <ele>2083.7</ele>
        <time>2021-07-12T11:14:28Z</time>
      </trkpt>
      <trkpt lat="44.77952" lon="6.70136">
        <ele>2074.7</ele>
        <time>2021-07-12T11:14:58Z</time>
      </trkpt>
      <trkpt lat="44.77939" lon="6.70177">
        <ele>2065.3</ele>
        <time>2021-07-12T11:15:29Z</time>
      </trkpt>
      <trkpt lat="44.77927" lon="6.70222">
        <ele>2058.9</ele>
        <time>2021-07-12T11:15:59Z</time>
      </trkpt>
      <trkpt lat="44.77915" lon="6.70264">
        <ele>2049.9</ele>
        <time>2021-07-12T11:16:30Z</time>
      </trkpt>
      <trkpt lat="44.77913" lon="6.70305">
        <ele>2046.2</ele>
        <time>2021-07-12T11:17:00Z</time>
      </trkpt>
      <trkpt lat="44.77898" lon="6.70338">
        <ele>2042.6</ele>
        <time>2021-07-12T11:17:30Z</time>
      </trkpt>
      <trkpt lat="44.77897" lon="6.70379">
        <ele>2039.4</ele>
        <time>2021-07-12T11:18:00Z</time>
      </trkpt>
      <trkpt lat="44.77903" lon="6.70416">
        <ele>2034.4</ele>
        <time>2021-07-12T11:18:31Z</time>
      </trkpt>
      <trkpt lat="44.77889" lon="6.70453">
        <ele>2031.8</ele>
        <time>2021-07-12T11:19:02Z</time>
      </trkpt>
      <trkpt lat="44.77874" lon="6.70496">
        <ele>2025.7</ele>
        <time>2021-07-12T11:19:33Z</time>
      </trkpt>
      <trkpt lat="44.77862" lon="6.70524">
        <ele>2021.5</ele>
        <time>2021-07-12T11:20:03Z</time>
      </trkpt>
      <trkpt lat="44.77848" lon="6.70547">
        <ele>2018.3</ele>
        <time>2021-07-12T11:20:34Z</time>
      </trkpt>
      <trkpt lat="44.77834" lon="6.70581">
        <ele>2012.6</ele>
        <time>2021-07-12T11:21:05Z</time>
      </trkpt>
      <trkpt lat="44.77821" lon="6.70616">
        <ele>2006.4</ele>
        <time>2021-07-12T11:21:35Z</time>
      </trkpt>
      <trkpt lat="44.77807" lon="6.70644">
        <ele>1997.4</ele>
        <time>2021-07-12T11:22:05Z</time>
      </trkpt>
      <trkpt lat="44.778" lon="6.70655">
        <ele>1995.5</ele>
        <time>2021-07-12T11:22:35Z</time>
      </trkpt>
      <trkpt lat="44.77778" lon="6.70677">
        <ele>1990.1</ele>
        <time>2021-07-12T11:23:06Z</time>
      </trkpt>
      <trkpt lat="44.7777" lon="6.70706">
        <ele>1983.5</ele>
        <time>2021-07-12T11:23:37Z</time>
      </trkpt>
      <trkpt lat="44.7776" lon="6.70734">
        <ele>1974.9</ele>
        <time>2021-07-12T11:24:08Z</time>
      </trkpt>
      <trkpt lat="44.77738" lon="6.70726">
        <ele>1965.8</ele>
        <time>2021-07-12T11:24:38Z</time>
      </trkpt>
      <trkpt lat="44.77719" lon="6.70733">
        <ele>1961.6</ele>
        <time>2021-07-12T11:25:08Z</time>
      </trkpt>
      <trkpt lat="44.77708" lon="6.7076">
        <ele>1956</ele>
        <time>2021-07-12T11:25:39Z</time>
      </trkpt>
      <trkpt lat="44.77685" lon="6.7077">
        <ele>1950.9</ele>
        <time>2021-07-12T11:26:09Z</time>
      </trkpt>
      <trkpt lat="44.77659" lon="6.70778">
        <ele>1947.5</ele>
        <time>2021-07-12T11:26:39Z</time>
      </trkpt>
      <trkpt lat="44.7764" lon="6.708">
        <ele>1945.7</ele>
        <time>2021-07-12T11:27:10Z</time>
      </trkpt>
      <trkpt lat="44.7762" lon="6.70815">
        <ele>1941.4</ele>
        <time>2021-07-12T11:27:40Z</time>
      </trkpt>
      <trkpt lat="44.77591" lon="6.70837">
        <ele>1937.8</ele>
        <time>2021-07-12T11:28:11Z</time>
      </trkpt>
      <trkpt lat="44.77576" lon="6.70869">
        <ele>1934.9</ele>
        <time>2021-07-12T11:28:41Z</time>
      </trkpt>
      <trkpt lat="44.7756" lon="6.70904">
        <ele>1930.5</ele>
        <time>2021-07-12T11:29:12Z</time>
      </trkpt>
      <trkpt lat="44.77544" lon="6.70934">
        <ele>1929.8</ele>
        <time>2021-07-12T11:29:43Z</time>
      </trkpt>
      <trkpt lat="44.77529" lon="6.70971">
        <ele>1924.9</ele>
        <time>2021-07-12T11:30:13Z</time>
      </trkpt>
      <trkpt lat="44.7751" lon="6.71005">
        <ele>1922.7</ele>
        <time>2021-07-12T11:30:44Z</time>
      </trkpt>
      <trkpt lat="44.77489" lon="6.71036">
        <ele>1917.9</ele>
        <time>2021-07-12T11:31:15Z</time>
      </trkpt>
      <trkpt lat="44.77465" lon="6.71069">
        <ele>1913.5</ele>
        <time>2021-07-12T11:31:45Z</time>
      </trkpt>
      <trkpt lat="44.77443" lon="6.7111">
        <ele>1911.8</ele>
        <time>2021-07-12T11:32:16Z</time>
      </trkpt>
      <trkpt lat="44.77423" lon="6.71145">
        <ele>1906</ele>
        <time>2021-07-12T11:32:46Z</time>
      </trkpt>
      <trkpt lat="44.77404" lon="6.71167">
        <ele>1899.2</ele>
        <time>2021-07-12T11:33:17Z</time>
      </trkpt>
      <trkpt lat="44.77386" lon="6.71195">
        <ele>1895.5</ele>
        <time>2021-07-12T11:33:47Z</time>
      </trkpt>
      <trkpt lat="44.77368" lon="6.71222">
        <ele>1889.7</ele>
        <time>2021-07-12T11:34:17Z</time>
      </trkpt>
      <trkpt lat="44.77343" lon="6.71246">
        <ele>1885.7</ele>
        <time>2021-07-12T11:34:47Z</time>
      </trkpt>
      <trkpt lat="44.77328" lon="6.71269">
        <ele>1880.2</ele>
        <time>2021-07-12T11:35:18Z</time>
      </trkpt>
      <trkpt lat="44.77322" lon="6.71301">
        <ele>1873.2</ele>
        <time>2021-07-12T11:35:48Z</time>
      </trkpt>
      <trkpt lat="44.77315" lon="6.71346">
        <ele>1870</ele>
        <time>2021-07-12T11:36:19Z</time>
      </trkpt>
      <trkpt lat="44.77312" lon="6.71377">
        <ele>1863.5</ele>
        <time>2021-07-12T11:36:50Z</time>
      </trkpt>
      <trkpt lat="44.77328" lon="6.71403">
        <ele>1859.1</ele>
        <time>2021-07-12T11:37:21Z</time>
      </trkpt>
      <trkpt lat="44.77317" lon="6.71434">
        <ele>1849</ele>
        <time>2021-07-12T11:37:51Z</time>
      </trkpt>
      <trkpt lat="44.77306" lon="6.71477">
        <ele>1844.1</ele>
        <time>2021-07-12T11:38:21Z</time>
      </trkpt>
      <trkpt lat="44.7731" lon="6.71505">
        <ele>1839.1</ele>
        <time>2021-07-12T11:38:52Z</time>
      </trkpt>
      <trkpt lat="44.77305" lon="6.71544">
        <ele>1832.4</ele>
        <time>2021-07-12T11:39:23Z</time>
      </trkpt>
      <trkpt lat="44.77309" lon="6.71581">
        <ele>1825.8</ele>
        <time>2021-07-12T11:39:54Z</time>
      </trkpt>
      <trkpt lat="44.77316" lon="6.71625">
        <ele>1819.9</ele>
        <time>2021-07-12T11:40:25Z</time>
      </trkpt>
      <trkpt lat="44.77326" lon="6.71667">
        <ele>1815.7</ele>
        <time>2021-07-12T11:40:55Z</time>
      </trkpt>
      <trkpt lat="44.77333" lon="6.7171">
        <ele>1813.8</ele>
        <time>2021-07-12T11:41:25Z</time>
      </trkpt>
      <trkpt lat="44.77344" lon="6.71747">
        <ele>1807.2</ele>
        <time>2021-07-12T11:41:56Z</time>
      </trkpt>
      <trkpt lat="44.77346" lon="6.7176">
        <ele>1807.6</ele>
        <time>2021-07-12T11:45:35Z</time>
      </trkpt>
      <trkpt lat="44.77346" lon="6.7181">
        <ele>1806.2</ele>
        <time>2021-07-12T11:46:05Z</time>
      </trkpt>
      <trkpt lat="44.77345" lon="6.71862">
        <ele>1801.2</ele>
        <time>2021-07-12T11:46:36Z</time>
      </trkpt>
      <trkpt lat="44.77345" lon="6.7192">
        <ele>1796.6</ele>
        <time>2021-07-12T11:47:06Z</time>
      </trkpt>
      <trkpt lat="44.77355" lon="6.71973">
        <ele>1791.6</ele>
        <time>2021-07-12T11:47:36Z</time>
      </trkpt>
      <trkpt lat="44.77353" lon="6.71987">
        <ele>1789.7</ele>
        <time>2021-07-12T11:49:58Z</time>
      </trkpt>
      <trkpt lat="44.77381" lon="6.72027">
        <ele>1786.2</ele>
        <time>2021-07-12T11:50:29Z</time>
      </trkpt>
      <trkpt lat="44.7739" lon="6.72047">
        <ele>1783.2</ele>
        <time>2021-07-12T11:50:59Z</time>
      </trkpt>
      <trkpt lat="44.77397" lon="6.72083">
        <ele>1783.6</ele>
        <time>2021-07-12T11:51:30Z</time>
      </trkpt>
      <trkpt lat="44.77397" lon="6.72109">
        <ele>1780.5</ele>
        <time>2021-07-12T11:52:00Z</time>
      </trkpt>
      <trkpt lat="44.77392" lon="6.72146">
        <ele>1776.2</ele>
        <time>2021-07-12T11:52:30Z</time>
      </trkpt>
      <trkpt lat="44.77394" lon="6.72168">
        <ele>1772.9</ele>
        <time>2021-07-12T11:53:00Z</time>
      </trkpt>
      <trkpt lat="44.77396" lon="6.72181">
        <ele>1766.4</ele>
        <time>2021-07-12T11:53:43Z</time>
      </trkpt>
      <trkpt lat="44.77398" lon="6.72224">
        <ele>1762.5</ele>
        <time>2021-07-12T11:54:13Z</time>
      </trkpt>
      <trkpt lat="44.7741" lon="6.72253">
        <ele>1753.6</ele>
        <time>2021-07-12T11:54:43Z</time>
      </trkpt>
      <trkpt lat="44.7741" lon="6.7228">
        <ele>1747</ele>
        <time>2021-07-12T11:55:13Z</time>
      </trkpt>
      <trkpt lat="44.77419" lon="6.72313">
        <ele>1740.6</ele>
        <time>2021-07-12T11:55:44Z</time>
      </trkpt>
      <trkpt lat="44.77415" lon="6.72339">
        <ele>1730.4</ele>
        <time>2021-07-12T11:56:15Z</time>
      </trkpt>
      <trkpt lat="44.77407" lon="6.72348">
        <ele>1725.4</ele>
        <time>2021-07-12T11:56:46Z</time>
      </trkpt>
      <trkpt lat="44.774" lon="6.72357">
        <ele>1730</ele>
        <time>2021-07-12T11:57:44Z</time>
      </trkpt>
      <trkpt lat="44.77396" lon="6.72391">
        <ele>1727.2</ele>
        <time>2021-07-12T11:58:14Z</time>
      </trkpt>
      <trkpt lat="44.77397" lon="6.72443">
        <ele>1724.2</ele>
        <time>2021-07-12T11:58:45Z</time>
      </trkpt>
      <trkpt lat="44.77405" lon="6.72492">
        <ele>1721.4</ele>
        <time>2021-07-12T11:59:16Z</time>
      </trkpt>
      <trkpt lat="44.77421" lon="6.72535">
        <ele>1718.1</ele>
        <time>2021-07-12T11:59:46Z</time>
      </trkpt>
      <trkpt lat="44.7742" lon="6.72585">
        <ele>1716.8</ele>
        <time>2021-07-12T12:00:17Z</time>
      </trkpt>
      <trkpt lat="44.77428" lon="6.7264">
        <ele>1716.9</ele>
        <time>2021-07-12T12:00:47Z</time>
      </trkpt>
      <trkpt lat="44.7744" lon="6.72686">
        <ele>1716.3</ele>
        <time>2021-07-12T12:01:17Z</time>
      </trkpt>
      <trkpt lat="44.77447" lon="6.72695">
        <ele>1721</ele>
        <time>2021-07-12T12:01:47Z</time>
      </trkpt>
      <trkpt lat="44.77447" lon="6.72739">
        <ele>1729.1</ele>
        <time>2021-07-12T12:02:18Z</time>
      </trkpt>
      <trkpt lat="44.77467" lon="6.72781">
        <ele>1725.6</ele>
        <time>2021-07-12T12:02:49Z</time>
      </trkpt>
      <trkpt lat="44.77476" lon="6.72828">
        <ele>1719.6</ele>
        <time>2021-07-12T12:03:19Z</time>
      </trkpt>
      <trkpt lat="44.77482" lon="6.72838">
        <ele>1715.2</ele>
        <time>2021-07-12T12:08:39Z</time>
      </trkpt>
      <trkpt lat="44.77489" lon="6.72874">
        <ele>1712.4</ele>
        <time>2021-07-12T12:09:10Z</time>
      </trkpt>
      <trkpt lat="44.77491" lon="6.72895">
        <ele>1714.1</ele>
        <time>2021-07-12T12:09:40Z</time>
      </trkpt>
      <trkpt lat="44.775" lon="6.72946">
        <ele>1709.3</ele>
        <time>2021-07-12T12:10:11Z</time>
      </trkpt>
      <trkpt lat="44.77513" lon="6.72996">
        <ele>1706.2</ele>
        <time>2021-07-12T12:10:42Z</time>
      </trkpt>
      <trkpt lat="44.7753" lon="6.73038">
        <ele>1709.9</ele>
        <time>2021-07-12T12:11:13Z</time>
      </trkpt>
      <trkpt lat="44.77541" lon="6.73045">
        <ele>1711</ele>
        <time>2021-07-12T12:11:43Z</time>
      </trkpt>
      <trkpt lat="44.77574" lon="6.73061">
        <ele>1711.1</ele>
        <time>2021-07-12T12:12:13Z</time>
      </trkpt>
      <trkpt lat="44.7761" lon="6.73078">
        <ele>1711.2</ele>
        <time>2021-07-12T12:12:44Z</time>
      </trkpt>
      <trkpt lat="44.77651" lon="6.73094">
        <ele>1710.2</ele>
        <time>2021-07-12T12:13:15Z</time>
      </trkpt>
      <trkpt lat="44.7769" lon="6.731">
        <ele>1709</ele>
        <time>2021-07-12T12:13:45Z</time>
      </trkpt>
      <trkpt lat="44.77723" lon="6.73108">
        <ele>1707.6</ele>
        <time>2021-07-12T12:14:16Z</time>
      </trkpt>
      <trkpt lat="44.77763" lon="6.73092">
        <ele>1707.5</ele>
        <time>2021-07-12T12:14:46Z</time>
      </trkpt>
      <trkpt lat="44.77795" lon="6.73118">
        <ele>1710.6</ele>
        <time>2021-07-12T12:15:17Z</time>
      </trkpt>
      <trkpt lat="44.77825" lon="6.73131">
        <ele>1711.5</ele>
        <time>2021-07-12T12:15:48Z</time>
      </trkpt>
      <trkpt lat="44.77862" lon="6.73153">
        <ele>1712.2</ele>
        <time>2021-07-12T12:16:19Z</time>
      </trkpt>
      <trkpt lat="44.77898" lon="6.7314">
        <ele>1709.1</ele>
        <time>2021-07-12T12:16:50Z</time>
      </trkpt>
      <trkpt lat="44.7793" lon="6.73124">
        <ele>1707.2</ele>
        <time>2021-07-12T12:17:20Z</time>
      </trkpt>
      <trkpt lat="44.77959" lon="6.73099">
        <ele>1705.1</ele>
        <time>2021-07-12T12:17:51Z</time>
      </trkpt>
      <trkpt lat="44.77996" lon="6.73103">
        <ele>1706</ele>
        <time>2021-07-12T12:18:21Z</time>
      </trkpt>
      <trkpt lat="44.78025" lon="6.73078">
        <ele>1705.4</ele>
        <time>2021-07-12T12:18:51Z</time>
      </trkpt>
      <trkpt lat="44.78053" lon="6.7304">
        <ele>1693.9</ele>
        <time>2021-07-12T12:19:22Z</time>
      </trkpt>
      <trkpt lat="44.78088" lon="6.73015">
        <ele>1690.2</ele>
        <time>2021-07-12T12:19:53Z</time>
      </trkpt>
      <trkpt lat="44.78096" lon="6.73065">
        <ele>1692.3</ele>
        <time>2021-07-12T12:20:23Z</time>
      </trkpt>
      <trkpt lat="44.78097" lon="6.73119">
        <ele>1694.6</ele>
        <time>2021-07-12T12:20:53Z</time>
      </trkpt>
      <trkpt lat="44.78092" lon="6.73179">
        <ele>1697.2</ele>
        <time>2021-07-12T12:21:24Z</time>
      </trkpt>
      <trkpt lat="44.78096" lon="6.73225">
        <ele>1694.3</ele>
        <time>2021-07-12T12:21:55Z</time>
      </trkpt>
      <trkpt lat="44.78134" lon="6.73226">
        <ele>1691.4</ele>
        <time>2021-07-12T12:22:25Z</time>
      </trkpt>
      <trkpt lat="44.78176" lon="6.73233">
        <ele>1688.3</ele>
        <time>2021-07-12T12:22:56Z</time>
      </trkpt>
      <trkpt lat="44.78217" lon="6.73231">
        <ele>1693.1</ele>
        <time>2021-07-12T12:23:27Z</time>
      </trkpt>
      <trkpt lat="44.78255" lon="6.73237">
        <ele>1694</ele>
        <time>2021-07-12T12:23:57Z</time>
      </trkpt>
      <trkpt lat="44.78292" lon="6.73229">
        <ele>1691.1</ele>
        <time>2021-07-12T12:24:27Z</time>
      </trkpt>
      <trkpt lat="44.78324" lon="6.73224">
        <ele>1689.9</ele>
        <time>2021-07-12T12:24:57Z</time>
      </trkpt>
      <trkpt lat="44.78356" lon="6.73219">
        <ele>1689</ele>
        <time>2021-07-12T12:25:28Z</time>
      </trkpt>
      <trkpt lat="44.7839" lon="6.732">
        <ele>1687.7</ele>
        <time>2021-07-12T12:25:58Z</time>
      </trkpt>
      <trkpt lat="44.78428" lon="6.73187">
        <ele>1684.1</ele>
        <time>2021-07-12T12:26:29Z</time>
      </trkpt>
      <trkpt lat="44.78466" lon="6.73187">
        <ele>1681.8</ele>
        <time>2021-07-12T12:27:00Z</time>
      </trkpt>
      <trkpt lat="44.78506" lon="6.73187">
        <ele>1680.9</ele>
        <time>2021-07-12T12:27:30Z</time>
      </trkpt>
      <trkpt lat="44.78544" lon="6.73171">
        <ele>1682.5</ele>
        <time>2021-07-12T12:28:01Z</time>
      </trkpt>
      <trkpt lat="44.78584" lon="6.73159">
        <ele>1680.3</ele>
        <time>2021-07-12T12:28:32Z</time>
      </trkpt>
      <trkpt lat="44.7862" lon="6.73156">
        <ele>1682</ele>
        <time>2021-07-12T12:29:02Z</time>
      </trkpt>
      <trkpt lat="44.78659" lon="6.73157">
        <ele>1683.4</ele>
        <time>2021-07-12T12:29:33Z</time>
      </trkpt>
      <trkpt lat="44.78695" lon="6.73144">
        <ele>1680.5</ele>
        <time>2021-07-12T12:30:04Z</time>
      </trkpt>
      <trkpt lat="44.78736" lon="6.73133">
        <ele>1678.6</ele>
        <time>2021-07-12T12:30:34Z</time>
      </trkpt>
      <trkpt lat="44.78744" lon="6.73139">
        <ele>1685.2</ele>
        <time>2021-07-12T12:33:20Z</time>
      </trkpt>
      <trkpt lat="44.78762" lon="6.73138">
        <ele>1686</ele>
        <time>2021-07-12T12:33:50Z</time>
      </trkpt>
      <trkpt lat="44.78796" lon="6.7314">
        <ele>1684.1</ele>
        <time>2021-07-12T12:34:20Z</time>
      </trkpt>
      <trkpt lat="44.78833" lon="6.73148">
        <ele>1684.5</ele>
        <time>2021-07-12T12:34:51Z</time>
      </trkpt>
      <trkpt lat="44.78868" lon="6.73152">
        <ele>1682.6</ele>
        <time>2021-07-12T12:35:22Z</time>
      </trkpt>
      <trkpt lat="44.78902" lon="6.73129">
        <ele>1684.5</ele>
        <time>2021-07-12T12:35:52Z</time>
      </trkpt>
      <trkpt lat="44.78914" lon="6.73119">
        <ele>1683.9</ele>
        <time>2021-07-12T12:36:23Z</time>
      </trkpt>
      <trkpt lat="44.7892" lon="6.73108">
        <ele>1680.3</ele>
        <time>2021-07-12T12:37:02Z</time>
      </trkpt>
      <trkpt lat="44.78949" lon="6.73112">
        <ele>1678.7</ele>
        <time>2021-07-12T12:37:32Z</time>
      </trkpt>
      <trkpt lat="44.78973" lon="6.73101">
        <ele>1677.6</ele>
        <time>2021-07-12T12:38:02Z</time>
      </trkpt>
      <trkpt lat="44.7898" lon="6.73061">
        <ele>1678.2</ele>
        <time>2021-07-12T12:38:33Z</time>
      </trkpt>
      <trkpt lat="44.79005" lon="6.73035">
        <ele>1679.9</ele>
        <time>2021-07-12T12:39:03Z</time>
      </trkpt>
      <trkpt lat="44.79037" lon="6.73024">
        <ele>1684.5</ele>
        <time>2021-07-12T12:39:34Z</time>
      </trkpt>
      <trkpt lat="44.79053" lon="6.72992">
        <ele>1686.9</ele>
        <time>2021-07-12T12:40:05Z</time>
      </trkpt>
      <trkpt lat="44.7908" lon="6.72974">
        <ele>1690.1</ele>
        <time>2021-07-12T12:40:36Z</time>
      </trkpt>
      <trkpt lat="44.79096" lon="6.72947">
        <ele>1692.4</ele>
        <time>2021-07-12T12:41:06Z</time>
      </trkpt>
      <trkpt lat="44.79108" lon="6.72917">
        <ele>1695.9</ele>
        <time>2021-07-12T12:41:36Z</time>
      </trkpt>
      <trkpt lat="44.79122" lon="6.72883">
        <ele>1698.9</ele>
        <time>2021-07-12T12:42:06Z</time>
      </trkpt>
      <trkpt lat="44.79147" lon="6.72852">
        <ele>1704.8</ele>
        <time>2021-07-12T12:42:37Z</time>
      </trkpt>
      <trkpt lat="44.79162" lon="6.72817">
        <ele>1707.2</ele>
        <time>2021-07-12T12:43:07Z</time>
      </trkpt>
      <trkpt lat="44.79189" lon="6.72804">
        <ele>1707.9</ele>
        <time>2021-07-12T12:43:37Z</time>
      </trkpt>
      <trkpt lat="44.79214" lon="6.72776">
        <ele>1714.2</ele>
        <time>2021-07-12T12:44:08Z</time>
      </trkpt>
      <trkpt lat="44.79236" lon="6.72756">
        <ele>1720.2</ele>
        <time>2021-07-12T12:44:39Z</time>
      </trkpt>
      <trkpt lat="44.7926" lon="6.72744">
        <ele>1724.4</ele>
        <time>2021-07-12T12:45:09Z</time>
      </trkpt>
      <trkpt lat="44.79272" lon="6.72769">
        <ele>1725.9</ele>
        <time>2021-07-12T12:45:40Z</time>
      </trkpt>
      <trkpt lat="44.79256" lon="6.72807">
        <ele>1723.5</ele>
        <time>2021-07-12T12:46:10Z</time>
      </trkpt>
      <trkpt lat="44.79251" lon="6.72819">
        <ele>1723.8</ele>
        <time>2021-07-12T12:46:40Z</time>
      </trkpt>
      <trkpt lat="44.79247" lon="6.72858">
        <ele>1716.3</ele>
        <time>2021-07-12T12:47:11Z</time>
      </trkpt>
      <trkpt lat="44.79256" lon="6.72905">
        <ele>1720.2</ele>
        <time>2021-07-12T12:47:42Z</time>
      </trkpt>
      <trkpt lat="44.79261" lon="6.72948">
        <ele>1720.5</ele>
        <time>2021-07-12T12:48:12Z</time>
      </trkpt>
      <trkpt lat="44.79265" lon="6.7299">
        <ele>1720.2</ele>
        <time>2021-07-12T12:48:42Z</time>
      </trkpt>
    </trkseg>
  </trk>
</gpx>